<?xml version="1.0" encoding="UTF-8" standalone="no" ?>
<gpx xmlns="http://www.topografix.com/GPX/1/1" xmlns:xsi="http://www.w3.org/2001/XMLSchema-instance" xsi:schemaLocation="http://www.topografix.com/GPX/1/1 http://www.topografix.com/GPX/1/1/gpx.xsd" version="1.1" creator="VisuGPX - https://www.visugpx.com">
  <metadata>
    <name>Circuit_55_kms_Les_Ajoncs</name>
    <desc><![CDATA[Circuit de puis Lannion vers Plougrescant (circuit des ajoncs)]]></desc>
  </metadata>
  <trk>
    <name><![CDATA[02-DEC-13 04:04:31 PM]]></name>
    <trkseg>
      <trkpt lat="48.74696" lon="-3.45496">
        <ele>58.78</ele>
        <time>2013-12-02T12:37:23Z</time>
      </trkpt>
      <trkpt lat="48.74696" lon="-3.45495">
        <ele>59.26</ele>
        <time>2013-12-02T12:37:41Z</time>
      </trkpt>
      <trkpt lat="48.74694" lon="-3.45497">
        <ele>58.78</ele>
        <time>2013-12-02T12:37:57Z</time>
      </trkpt>
      <trkpt lat="48.74691" lon="-3.45491">
        <ele>59.26</ele>
        <time>2013-12-02T12:38:17Z</time>
      </trkpt>
      <trkpt lat="48.74695" lon="-3.45503">
        <ele>59.74</ele>
        <time>2013-12-02T12:38:40Z</time>
      </trkpt>
      <trkpt lat="48.74696" lon="-3.45506">
        <ele>59.26</ele>
        <time>2013-12-02T12:38:58Z</time>
      </trkpt>
      <trkpt lat="48.74694" lon="-3.45502">
        <ele>59.74</ele>
        <time>2013-12-02T12:39:22Z</time>
      </trkpt>
      <trkpt lat="48.74699" lon="-3.45498">
        <ele>59.74</ele>
        <time>2013-12-02T12:39:42Z</time>
      </trkpt>
      <trkpt lat="48.74696" lon="-3.45488">
        <ele>60.22</ele>
        <time>2013-12-02T12:40:01Z</time>
      </trkpt>
      <trkpt lat="48.74695" lon="-3.45481">
        <ele>60.22</ele>
        <time>2013-12-02T12:40:17Z</time>
      </trkpt>
      <trkpt lat="48.74695" lon="-3.45493">
        <ele>60.22</ele>
        <time>2013-12-02T12:40:33Z</time>
      </trkpt>
      <trkpt lat="48.74696" lon="-3.45485">
        <ele>60.22</ele>
        <time>2013-12-02T12:40:50Z</time>
      </trkpt>
      <trkpt lat="48.74694" lon="-3.4549">
        <ele>61.66</ele>
        <time>2013-12-02T12:41:13Z</time>
      </trkpt>
      <trkpt lat="48.74694" lon="-3.45495">
        <ele>60.22</ele>
        <time>2013-12-02T12:41:27Z</time>
      </trkpt>
      <trkpt lat="48.74691" lon="-3.45495">
        <ele>60.7</ele>
        <time>2013-12-02T12:41:44Z</time>
      </trkpt>
      <trkpt lat="48.74696" lon="-3.45499">
        <ele>59.74</ele>
        <time>2013-12-02T12:41:58Z</time>
      </trkpt>
      <trkpt lat="48.74695" lon="-3.45499">
        <ele>60.7</ele>
        <time>2013-12-02T12:42:00Z</time>
      </trkpt>
      <trkpt lat="48.74683" lon="-3.45521">
        <ele>60.22</ele>
        <time>2013-12-02T12:42:06Z</time>
      </trkpt>
      <trkpt lat="48.7468" lon="-3.45523">
        <ele>60.22</ele>
        <time>2013-12-02T12:42:07Z</time>
      </trkpt>
      <trkpt lat="48.74676" lon="-3.45522">
        <ele>60.22</ele>
        <time>2013-12-02T12:42:08Z</time>
      </trkpt>
      <trkpt lat="48.74672" lon="-3.45518">
        <ele>60.22</ele>
        <time>2013-12-02T12:42:09Z</time>
      </trkpt>
      <trkpt lat="48.74668" lon="-3.45513">
        <ele>60.22</ele>
        <time>2013-12-02T12:42:10Z</time>
      </trkpt>
      <trkpt lat="48.74664" lon="-3.45508">
        <ele>59.74</ele>
        <time>2013-12-02T12:42:11Z</time>
      </trkpt>
      <trkpt lat="48.74635" lon="-3.45475">
        <ele>57.82</ele>
        <time>2013-12-02T12:42:17Z</time>
      </trkpt>
      <trkpt lat="48.74629" lon="-3.45471">
        <ele>56.86</ele>
        <time>2013-12-02T12:42:18Z</time>
      </trkpt>
      <trkpt lat="48.74622" lon="-3.45469">
        <ele>56.86</ele>
        <time>2013-12-02T12:42:19Z</time>
      </trkpt>
      <trkpt lat="48.74617" lon="-3.45469">
        <ele>56.86</ele>
        <time>2013-12-02T12:42:20Z</time>
      </trkpt>
      <trkpt lat="48.74612" lon="-3.45472">
        <ele>55.41</ele>
        <time>2013-12-02T12:42:21Z</time>
      </trkpt>
      <trkpt lat="48.74608" lon="-3.45476">
        <ele>54.45</ele>
        <time>2013-12-02T12:42:22Z</time>
      </trkpt>
      <trkpt lat="48.74604" lon="-3.4548">
        <ele>53.49</ele>
        <time>2013-12-02T12:42:23Z</time>
      </trkpt>
      <trkpt lat="48.74598" lon="-3.45495">
        <ele>51.57</ele>
        <time>2013-12-02T12:42:26Z</time>
      </trkpt>
      <trkpt lat="48.74597" lon="-3.45498">
        <ele>51.57</ele>
        <time>2013-12-02T12:42:27Z</time>
      </trkpt>
      <trkpt lat="48.74598" lon="-3.455">
        <ele>51.57</ele>
        <time>2013-12-02T12:42:28Z</time>
      </trkpt>
      <trkpt lat="48.74598" lon="-3.45502">
        <ele>51.09</ele>
        <time>2013-12-02T12:42:29Z</time>
      </trkpt>
      <trkpt lat="48.74598" lon="-3.45505">
        <ele>51.57</ele>
        <time>2013-12-02T12:42:30Z</time>
      </trkpt>
      <trkpt lat="48.74599" lon="-3.45515">
        <ele>52.05</ele>
        <time>2013-12-02T12:42:45Z</time>
      </trkpt>
      <trkpt lat="48.74599" lon="-3.45515">
        <ele>52.05</ele>
        <time>2013-12-02T12:42:48Z</time>
      </trkpt>
      <trkpt lat="48.74598" lon="-3.45516">
        <ele>52.05</ele>
        <time>2013-12-02T12:43:05Z</time>
      </trkpt>
      <trkpt lat="48.74597" lon="-3.45517">
        <ele>52.05</ele>
        <time>2013-12-02T12:43:06Z</time>
      </trkpt>
      <trkpt lat="48.74595" lon="-3.45518">
        <ele>52.05</ele>
        <time>2013-12-02T12:43:07Z</time>
      </trkpt>
      <trkpt lat="48.74592" lon="-3.45517">
        <ele>52.05</ele>
        <time>2013-12-02T12:43:08Z</time>
      </trkpt>
      <trkpt lat="48.74589" lon="-3.45515">
        <ele>51.57</ele>
        <time>2013-12-02T12:43:09Z</time>
      </trkpt>
      <trkpt lat="48.74585" lon="-3.45511">
        <ele>52.05</ele>
        <time>2013-12-02T12:43:10Z</time>
      </trkpt>
      <trkpt lat="48.74581" lon="-3.45506">
        <ele>51.57</ele>
        <time>2013-12-02T12:43:11Z</time>
      </trkpt>
      <trkpt lat="48.74546" lon="-3.45441">
        <ele>48.2</ele>
        <time>2013-12-02T12:43:19Z</time>
      </trkpt>
      <trkpt lat="48.74526" lon="-3.45399">
        <ele>47.24</ele>
        <time>2013-12-02T12:43:23Z</time>
      </trkpt>
      <trkpt lat="48.74498" lon="-3.45361">
        <ele>50.13</ele>
        <time>2013-12-02T12:43:29Z</time>
      </trkpt>
      <trkpt lat="48.74495" lon="-3.45357">
        <ele>49.65</ele>
        <time>2013-12-02T12:43:30Z</time>
      </trkpt>
      <trkpt lat="48.74468" lon="-3.45325">
        <ele>53.01</ele>
        <time>2013-12-02T12:43:39Z</time>
      </trkpt>
      <trkpt lat="48.74448" lon="-3.45299">
        <ele>55.89</ele>
        <time>2013-12-02T12:43:46Z</time>
      </trkpt>
      <trkpt lat="48.74418" lon="-3.4526">
        <ele>56.86</ele>
        <time>2013-12-02T12:43:59Z</time>
      </trkpt>
      <trkpt lat="48.74407" lon="-3.45243">
        <ele>58.78</ele>
        <time>2013-12-02T12:44:14Z</time>
      </trkpt>
      <trkpt lat="48.74407" lon="-3.4524">
        <ele>58.78</ele>
        <time>2013-12-02T12:44:15Z</time>
      </trkpt>
      <trkpt lat="48.74408" lon="-3.45236">
        <ele>58.78</ele>
        <time>2013-12-02T12:44:16Z</time>
      </trkpt>
      <trkpt lat="48.7441" lon="-3.45232">
        <ele>58.78</ele>
        <time>2013-12-02T12:44:17Z</time>
      </trkpt>
      <trkpt lat="48.74412" lon="-3.45229">
        <ele>59.26</ele>
        <time>2013-12-02T12:44:18Z</time>
      </trkpt>
      <trkpt lat="48.74415" lon="-3.45225">
        <ele>59.26</ele>
        <time>2013-12-02T12:44:19Z</time>
      </trkpt>
      <trkpt lat="48.74456" lon="-3.45197">
        <ele>59.74</ele>
        <time>2013-12-02T12:44:30Z</time>
      </trkpt>
      <trkpt lat="48.74528" lon="-3.45146">
        <ele>61.18</ele>
        <time>2013-12-02T12:44:47Z</time>
      </trkpt>
      <trkpt lat="48.74579" lon="-3.4511">
        <ele>61.66</ele>
        <time>2013-12-02T12:44:59Z</time>
      </trkpt>
      <trkpt lat="48.74583" lon="-3.45108">
        <ele>62.14</ele>
        <time>2013-12-02T12:45:00Z</time>
      </trkpt>
      <trkpt lat="48.74586" lon="-3.45106">
        <ele>62.14</ele>
        <time>2013-12-02T12:45:01Z</time>
      </trkpt>
      <trkpt lat="48.74606" lon="-3.45094">
        <ele>63.1</ele>
        <time>2013-12-02T12:45:06Z</time>
      </trkpt>
      <trkpt lat="48.74623" lon="-3.45088">
        <ele>64.07</ele>
        <time>2013-12-02T12:45:10Z</time>
      </trkpt>
      <trkpt lat="48.74627" lon="-3.45085">
        <ele>63.58</ele>
        <time>2013-12-02T12:45:11Z</time>
      </trkpt>
      <trkpt lat="48.74631" lon="-3.45082">
        <ele>64.07</ele>
        <time>2013-12-02T12:45:12Z</time>
      </trkpt>
      <trkpt lat="48.7467" lon="-3.45048">
        <ele>67.91</ele>
        <time>2013-12-02T12:45:23Z</time>
      </trkpt>
      <trkpt lat="48.74711" lon="-3.45008">
        <ele>70.79</ele>
        <time>2013-12-02T12:45:35Z</time>
      </trkpt>
      <trkpt lat="48.74734" lon="-3.44984">
        <ele>72.72</ele>
        <time>2013-12-02T12:45:42Z</time>
      </trkpt>
      <trkpt lat="48.74738" lon="-3.44981">
        <ele>73.2</ele>
        <time>2013-12-02T12:45:43Z</time>
      </trkpt>
      <trkpt lat="48.74774" lon="-3.44932">
        <ele>76.08</ele>
        <time>2013-12-02T12:45:55Z</time>
      </trkpt>
      <trkpt lat="48.74797" lon="-3.44893">
        <ele>76.56</ele>
        <time>2013-12-02T12:46:04Z</time>
      </trkpt>
      <trkpt lat="48.748" lon="-3.44888">
        <ele>77.52</ele>
        <time>2013-12-02T12:46:05Z</time>
      </trkpt>
      <trkpt lat="48.74807" lon="-3.44878">
        <ele>78</ele>
        <time>2013-12-02T12:46:07Z</time>
      </trkpt>
      <trkpt lat="48.7481" lon="-3.44873">
        <ele>77.52</ele>
        <time>2013-12-02T12:46:08Z</time>
      </trkpt>
      <trkpt lat="48.74813" lon="-3.44868">
        <ele>77.52</ele>
        <time>2013-12-02T12:46:09Z</time>
      </trkpt>
      <trkpt lat="48.74817" lon="-3.44863">
        <ele>78</ele>
        <time>2013-12-02T12:46:10Z</time>
      </trkpt>
      <trkpt lat="48.74838" lon="-3.44834">
        <ele>77.52</ele>
        <time>2013-12-02T12:46:16Z</time>
      </trkpt>
      <trkpt lat="48.74914" lon="-3.44745">
        <ele>78.48</ele>
        <time>2013-12-02T12:46:35Z</time>
      </trkpt>
      <trkpt lat="48.74927" lon="-3.44733">
        <ele>78.48</ele>
        <time>2013-12-02T12:46:38Z</time>
      </trkpt>
      <trkpt lat="48.74984" lon="-3.44666">
        <ele>79.45</ele>
        <time>2013-12-02T12:46:53Z</time>
      </trkpt>
      <trkpt lat="48.75053" lon="-3.44609">
        <ele>81.37</ele>
        <time>2013-12-02T12:47:09Z</time>
      </trkpt>
      <trkpt lat="48.75089" lon="-3.44578">
        <ele>83.77</ele>
        <time>2013-12-02T12:47:18Z</time>
      </trkpt>
      <trkpt lat="48.75093" lon="-3.44574">
        <ele>83.29</ele>
        <time>2013-12-02T12:47:19Z</time>
      </trkpt>
      <trkpt lat="48.75096" lon="-3.4457">
        <ele>83.29</ele>
        <time>2013-12-02T12:47:20Z</time>
      </trkpt>
      <trkpt lat="48.75099" lon="-3.44567">
        <ele>83.29</ele>
        <time>2013-12-02T12:47:21Z</time>
      </trkpt>
      <trkpt lat="48.75101" lon="-3.44565">
        <ele>83.77</ele>
        <time>2013-12-02T12:47:22Z</time>
      </trkpt>
      <trkpt lat="48.75112" lon="-3.44548">
        <ele>83.77</ele>
        <time>2013-12-02T12:47:27Z</time>
      </trkpt>
      <trkpt lat="48.75117" lon="-3.44537">
        <ele>84.25</ele>
        <time>2013-12-02T12:47:29Z</time>
      </trkpt>
      <trkpt lat="48.7516" lon="-3.44447">
        <ele>85.69</ele>
        <time>2013-12-02T12:47:44Z</time>
      </trkpt>
      <trkpt lat="48.75218" lon="-3.44363">
        <ele>87.14</ele>
        <time>2013-12-02T12:48:00Z</time>
      </trkpt>
      <trkpt lat="48.75292" lon="-3.44258">
        <ele>88.1</ele>
        <time>2013-12-02T12:48:19Z</time>
      </trkpt>
      <trkpt lat="48.7533" lon="-3.44161">
        <ele>88.58</ele>
        <time>2013-12-02T12:48:33Z</time>
      </trkpt>
      <trkpt lat="48.7534" lon="-3.44131">
        <ele>88.58</ele>
        <time>2013-12-02T12:48:37Z</time>
      </trkpt>
      <trkpt lat="48.75402" lon="-3.44014">
        <ele>89.54</ele>
        <time>2013-12-02T12:48:55Z</time>
      </trkpt>
      <trkpt lat="48.75476" lon="-3.43945">
        <ele>89.54</ele>
        <time>2013-12-02T12:49:11Z</time>
      </trkpt>
      <trkpt lat="48.75583" lon="-3.43887">
        <ele>90.98</ele>
        <time>2013-12-02T12:49:32Z</time>
      </trkpt>
      <trkpt lat="48.75694" lon="-3.43827">
        <ele>92.42</ele>
        <time>2013-12-02T12:49:54Z</time>
      </trkpt>
      <trkpt lat="48.75794" lon="-3.43773">
        <ele>91.94</ele>
        <time>2013-12-02T12:50:14Z</time>
      </trkpt>
      <trkpt lat="48.75859" lon="-3.43737">
        <ele>92.42</ele>
        <time>2013-12-02T12:50:27Z</time>
      </trkpt>
      <trkpt lat="48.7596" lon="-3.43663">
        <ele>92.9</ele>
        <time>2013-12-02T12:50:48Z</time>
      </trkpt>
      <trkpt lat="48.76042" lon="-3.4357">
        <ele>93.39</ele>
        <time>2013-12-02T12:51:07Z</time>
      </trkpt>
      <trkpt lat="48.76117" lon="-3.43444">
        <ele>93.87</ele>
        <time>2013-12-02T12:51:28Z</time>
      </trkpt>
      <trkpt lat="48.76183" lon="-3.4332">
        <ele>92.42</ele>
        <time>2013-12-02T12:51:47Z</time>
      </trkpt>
      <trkpt lat="48.76265" lon="-3.43207">
        <ele>90.5</ele>
        <time>2013-12-02T12:52:05Z</time>
      </trkpt>
      <trkpt lat="48.76374" lon="-3.43114">
        <ele>87.62</ele>
        <time>2013-12-02T12:52:24Z</time>
      </trkpt>
      <trkpt lat="48.76486" lon="-3.43058">
        <ele>85.21</ele>
        <time>2013-12-02T12:52:41Z</time>
      </trkpt>
      <trkpt lat="48.7661" lon="-3.42969">
        <ele>82.33</ele>
        <time>2013-12-02T12:53:00Z</time>
      </trkpt>
      <trkpt lat="48.76711" lon="-3.42844">
        <ele>79.93</ele>
        <time>2013-12-02T12:53:19Z</time>
      </trkpt>
      <trkpt lat="48.76803" lon="-3.42763">
        <ele>80.41</ele>
        <time>2013-12-02T12:53:36Z</time>
      </trkpt>
      <trkpt lat="48.76909" lon="-3.42681">
        <ele>80.89</ele>
        <time>2013-12-02T12:53:56Z</time>
      </trkpt>
      <trkpt lat="48.76987" lon="-3.42584">
        <ele>79.93</ele>
        <time>2013-12-02T12:54:13Z</time>
      </trkpt>
      <trkpt lat="48.77072" lon="-3.42455">
        <ele>76.56</ele>
        <time>2013-12-02T12:54:31Z</time>
      </trkpt>
      <trkpt lat="48.7715" lon="-3.42337">
        <ele>73.2</ele>
        <time>2013-12-02T12:54:46Z</time>
      </trkpt>
      <trkpt lat="48.77242" lon="-3.42197">
        <ele>71.76</ele>
        <time>2013-12-02T12:55:04Z</time>
      </trkpt>
      <trkpt lat="48.77318" lon="-3.42068">
        <ele>70.79</ele>
        <time>2013-12-02T12:55:21Z</time>
      </trkpt>
      <trkpt lat="48.77386" lon="-3.41912">
        <ele>68.87</ele>
        <time>2013-12-02T12:55:40Z</time>
      </trkpt>
      <trkpt lat="48.77471" lon="-3.41776">
        <ele>67.43</ele>
        <time>2013-12-02T12:55:59Z</time>
      </trkpt>
      <trkpt lat="48.77566" lon="-3.41661">
        <ele>68.87</ele>
        <time>2013-12-02T12:56:19Z</time>
      </trkpt>
      <trkpt lat="48.77652" lon="-3.41552">
        <ele>71.76</ele>
        <time>2013-12-02T12:56:39Z</time>
      </trkpt>
      <trkpt lat="48.77725" lon="-3.41442">
        <ele>75.12</ele>
        <time>2013-12-02T12:57:00Z</time>
      </trkpt>
      <trkpt lat="48.77775" lon="-3.4132">
        <ele>77.52</ele>
        <time>2013-12-02T12:57:19Z</time>
      </trkpt>
      <trkpt lat="48.77809" lon="-3.41181">
        <ele>78.48</ele>
        <time>2013-12-02T12:57:38Z</time>
      </trkpt>
      <trkpt lat="48.77849" lon="-3.4102">
        <ele>78.97</ele>
        <time>2013-12-02T12:57:59Z</time>
      </trkpt>
      <trkpt lat="48.77896" lon="-3.4083">
        <ele>80.89</ele>
        <time>2013-12-02T12:58:23Z</time>
      </trkpt>
      <trkpt lat="48.77924" lon="-3.40732">
        <ele>84.73</ele>
        <time>2013-12-02T12:58:36Z</time>
      </trkpt>
      <trkpt lat="48.77937" lon="-3.40688">
        <ele>81.37</ele>
        <time>2013-12-02T12:58:42Z</time>
      </trkpt>
      <trkpt lat="48.77987" lon="-3.40549">
        <ele>83.29</ele>
        <time>2013-12-02T12:59:01Z</time>
      </trkpt>
      <trkpt lat="48.78047" lon="-3.40402">
        <ele>84.73</ele>
        <time>2013-12-02T12:59:22Z</time>
      </trkpt>
      <trkpt lat="48.78107" lon="-3.40256">
        <ele>84.73</ele>
        <time>2013-12-02T12:59:42Z</time>
      </trkpt>
      <trkpt lat="48.78169" lon="-3.40107">
        <ele>84.73</ele>
        <time>2013-12-02T13:00:02Z</time>
      </trkpt>
      <trkpt lat="48.78231" lon="-3.39956">
        <ele>83.29</ele>
        <time>2013-12-02T13:00:22Z</time>
      </trkpt>
      <trkpt lat="48.78304" lon="-3.39796">
        <ele>84.25</ele>
        <time>2013-12-02T13:00:44Z</time>
      </trkpt>
      <trkpt lat="48.78395" lon="-3.3969">
        <ele>83.29</ele>
        <time>2013-12-02T13:01:03Z</time>
      </trkpt>
      <trkpt lat="48.78473" lon="-3.39651">
        <ele>82.33</ele>
        <time>2013-12-02T13:01:16Z</time>
      </trkpt>
      <trkpt lat="48.78478" lon="-3.39646">
        <ele>82.33</ele>
        <time>2013-12-02T13:01:17Z</time>
      </trkpt>
      <trkpt lat="48.78482" lon="-3.39639">
        <ele>82.81</ele>
        <time>2013-12-02T13:01:18Z</time>
      </trkpt>
      <trkpt lat="48.78482" lon="-3.39631">
        <ele>82.33</ele>
        <time>2013-12-02T13:01:19Z</time>
      </trkpt>
      <trkpt lat="48.78481" lon="-3.39623">
        <ele>82.33</ele>
        <time>2013-12-02T13:01:20Z</time>
      </trkpt>
      <trkpt lat="48.78478" lon="-3.39615">
        <ele>81.85</ele>
        <time>2013-12-02T13:01:21Z</time>
      </trkpt>
      <trkpt lat="48.78474" lon="-3.39609">
        <ele>81.37</ele>
        <time>2013-12-02T13:01:22Z</time>
      </trkpt>
      <trkpt lat="48.78469" lon="-3.39603">
        <ele>81.37</ele>
        <time>2013-12-02T13:01:23Z</time>
      </trkpt>
      <trkpt lat="48.78465" lon="-3.39598">
        <ele>82.33</ele>
        <time>2013-12-02T13:01:24Z</time>
      </trkpt>
      <trkpt lat="48.78459" lon="-3.39594">
        <ele>81.85</ele>
        <time>2013-12-02T13:01:25Z</time>
      </trkpt>
      <trkpt lat="48.78454" lon="-3.39591">
        <ele>81.85</ele>
        <time>2013-12-02T13:01:26Z</time>
      </trkpt>
      <trkpt lat="48.78367" lon="-3.39511">
        <ele>82.81</ele>
        <time>2013-12-02T13:01:43Z</time>
      </trkpt>
      <trkpt lat="48.78297" lon="-3.394">
        <ele>81.85</ele>
        <time>2013-12-02T13:02:00Z</time>
      </trkpt>
      <trkpt lat="48.78246" lon="-3.3927">
        <ele>83.29</ele>
        <time>2013-12-02T13:02:17Z</time>
      </trkpt>
      <trkpt lat="48.78218" lon="-3.39152">
        <ele>81.37</ele>
        <time>2013-12-02T13:02:30Z</time>
      </trkpt>
      <trkpt lat="48.78166" lon="-3.38928">
        <ele>78.97</ele>
        <time>2013-12-02T13:02:53Z</time>
      </trkpt>
      <trkpt lat="48.78112" lon="-3.38748">
        <ele>78</ele>
        <time>2013-12-02T13:03:13Z</time>
      </trkpt>
      <trkpt lat="48.78045" lon="-3.38579">
        <ele>79.45</ele>
        <time>2013-12-02T13:03:33Z</time>
      </trkpt>
      <trkpt lat="48.7803" lon="-3.38538">
        <ele>80.89</ele>
        <time>2013-12-02T13:03:38Z</time>
      </trkpt>
      <trkpt lat="48.77967" lon="-3.38382">
        <ele>83.29</ele>
        <time>2013-12-02T13:03:59Z</time>
      </trkpt>
      <trkpt lat="48.77905" lon="-3.3822">
        <ele>83.29</ele>
        <time>2013-12-02T13:04:20Z</time>
      </trkpt>
      <trkpt lat="48.7784" lon="-3.38051">
        <ele>82.33</ele>
        <time>2013-12-02T13:04:41Z</time>
      </trkpt>
      <trkpt lat="48.77783" lon="-3.37909">
        <ele>79.45</ele>
        <time>2013-12-02T13:04:58Z</time>
      </trkpt>
      <trkpt lat="48.77744" lon="-3.37808">
        <ele>76.56</ele>
        <time>2013-12-02T13:05:10Z</time>
      </trkpt>
      <trkpt lat="48.77672" lon="-3.37622">
        <ele>76.08</ele>
        <time>2013-12-02T13:05:31Z</time>
      </trkpt>
      <trkpt lat="48.77639" lon="-3.37538">
        <ele>78.48</ele>
        <time>2013-12-02T13:05:42Z</time>
      </trkpt>
      <trkpt lat="48.7761" lon="-3.37465">
        <ele>81.37</ele>
        <time>2013-12-02T13:05:54Z</time>
      </trkpt>
      <trkpt lat="48.77583" lon="-3.37396">
        <ele>84.73</ele>
        <time>2013-12-02T13:06:06Z</time>
      </trkpt>
      <trkpt lat="48.77564" lon="-3.37351">
        <ele>88.1</ele>
        <time>2013-12-02T13:06:14Z</time>
      </trkpt>
      <trkpt lat="48.77529" lon="-3.37259">
        <ele>90.5</ele>
        <time>2013-12-02T13:06:30Z</time>
      </trkpt>
      <trkpt lat="48.77473" lon="-3.37114">
        <ele>91.46</ele>
        <time>2013-12-02T13:06:52Z</time>
      </trkpt>
      <trkpt lat="48.77395" lon="-3.36934">
        <ele>90.5</ele>
        <time>2013-12-02T13:07:16Z</time>
      </trkpt>
      <trkpt lat="48.77323" lon="-3.36806">
        <ele>90.5</ele>
        <time>2013-12-02T13:07:34Z</time>
      </trkpt>
      <trkpt lat="48.77251" lon="-3.36681">
        <ele>92.42</ele>
        <time>2013-12-02T13:07:55Z</time>
      </trkpt>
      <trkpt lat="48.77225" lon="-3.36637">
        <ele>94.35</ele>
        <time>2013-12-02T13:08:03Z</time>
      </trkpt>
      <trkpt lat="48.77211" lon="-3.36618">
        <ele>94.83</ele>
        <time>2013-12-02T13:08:07Z</time>
      </trkpt>
      <trkpt lat="48.77208" lon="-3.36615">
        <ele>95.31</ele>
        <time>2013-12-02T13:08:08Z</time>
      </trkpt>
      <trkpt lat="48.77197" lon="-3.36603">
        <ele>95.31</ele>
        <time>2013-12-02T13:08:11Z</time>
      </trkpt>
      <trkpt lat="48.77194" lon="-3.36598">
        <ele>96.27</ele>
        <time>2013-12-02T13:08:12Z</time>
      </trkpt>
      <trkpt lat="48.77193" lon="-3.36592">
        <ele>96.75</ele>
        <time>2013-12-02T13:08:13Z</time>
      </trkpt>
      <trkpt lat="48.77194" lon="-3.36586">
        <ele>97.23</ele>
        <time>2013-12-02T13:08:14Z</time>
      </trkpt>
      <trkpt lat="48.77196" lon="-3.36581">
        <ele>96.75</ele>
        <time>2013-12-02T13:08:15Z</time>
      </trkpt>
      <trkpt lat="48.772" lon="-3.36577">
        <ele>96.75</ele>
        <time>2013-12-02T13:08:16Z</time>
      </trkpt>
      <trkpt lat="48.77205" lon="-3.36574">
        <ele>96.27</ele>
        <time>2013-12-02T13:08:17Z</time>
      </trkpt>
      <trkpt lat="48.7721" lon="-3.36571">
        <ele>96.27</ele>
        <time>2013-12-02T13:08:18Z</time>
      </trkpt>
      <trkpt lat="48.77215" lon="-3.36569">
        <ele>96.27</ele>
        <time>2013-12-02T13:08:19Z</time>
      </trkpt>
      <trkpt lat="48.7722" lon="-3.36565">
        <ele>95.79</ele>
        <time>2013-12-02T13:08:20Z</time>
      </trkpt>
      <trkpt lat="48.77224" lon="-3.3656">
        <ele>96.27</ele>
        <time>2013-12-02T13:08:21Z</time>
      </trkpt>
      <trkpt lat="48.77291" lon="-3.36457">
        <ele>95.31</ele>
        <time>2013-12-02T13:08:38Z</time>
      </trkpt>
      <trkpt lat="48.77336" lon="-3.3635">
        <ele>96.27</ele>
        <time>2013-12-02T13:08:53Z</time>
      </trkpt>
      <trkpt lat="48.77397" lon="-3.36219">
        <ele>95.31</ele>
        <time>2013-12-02T13:09:11Z</time>
      </trkpt>
      <trkpt lat="48.77458" lon="-3.3609">
        <ele>96.75</ele>
        <time>2013-12-02T13:09:29Z</time>
      </trkpt>
      <trkpt lat="48.77503" lon="-3.35957">
        <ele>98.19</ele>
        <time>2013-12-02T13:09:47Z</time>
      </trkpt>
      <trkpt lat="48.77551" lon="-3.35824">
        <ele>96.75</ele>
        <time>2013-12-02T13:10:04Z</time>
      </trkpt>
      <trkpt lat="48.7761" lon="-3.3567">
        <ele>96.75</ele>
        <time>2013-12-02T13:10:23Z</time>
      </trkpt>
      <trkpt lat="48.77663" lon="-3.35507">
        <ele>96.75</ele>
        <time>2013-12-02T13:10:42Z</time>
      </trkpt>
      <trkpt lat="48.77723" lon="-3.35363">
        <ele>96.75</ele>
        <time>2013-12-02T13:11:00Z</time>
      </trkpt>
      <trkpt lat="48.77765" lon="-3.35228">
        <ele>98.19</ele>
        <time>2013-12-02T13:11:17Z</time>
      </trkpt>
      <trkpt lat="48.77801" lon="-3.35066">
        <ele>98.19</ele>
        <time>2013-12-02T13:11:37Z</time>
      </trkpt>
      <trkpt lat="48.77812" lon="-3.34928">
        <ele>96.75</ele>
        <time>2013-12-02T13:11:52Z</time>
      </trkpt>
      <trkpt lat="48.77844" lon="-3.34813">
        <ele>95.79</ele>
        <time>2013-12-02T13:12:05Z</time>
      </trkpt>
      <trkpt lat="48.77881" lon="-3.34666">
        <ele>95.31</ele>
        <time>2013-12-02T13:12:22Z</time>
      </trkpt>
      <trkpt lat="48.77913" lon="-3.34502">
        <ele>96.27</ele>
        <time>2013-12-02T13:12:41Z</time>
      </trkpt>
      <trkpt lat="48.77963" lon="-3.34346">
        <ele>95.31</ele>
        <time>2013-12-02T13:12:59Z</time>
      </trkpt>
      <trkpt lat="48.78007" lon="-3.34217">
        <ele>94.83</ele>
        <time>2013-12-02T13:13:15Z</time>
      </trkpt>
      <trkpt lat="48.78019" lon="-3.34091">
        <ele>95.79</ele>
        <time>2013-12-02T13:13:30Z</time>
      </trkpt>
      <trkpt lat="48.78036" lon="-3.34022">
        <ele>97.71</ele>
        <time>2013-12-02T13:13:40Z</time>
      </trkpt>
      <trkpt lat="48.78064" lon="-3.33888">
        <ele>98.19</ele>
        <time>2013-12-02T13:13:58Z</time>
      </trkpt>
      <trkpt lat="48.78081" lon="-3.338">
        <ele>94.83</ele>
        <time>2013-12-02T13:14:07Z</time>
      </trkpt>
      <trkpt lat="48.78124" lon="-3.33655">
        <ele>93.87</ele>
        <time>2013-12-02T13:14:24Z</time>
      </trkpt>
      <trkpt lat="48.78158" lon="-3.3355">
        <ele>95.31</ele>
        <time>2013-12-02T13:14:38Z</time>
      </trkpt>
      <trkpt lat="48.78173" lon="-3.33514">
        <ele>95.79</ele>
        <time>2013-12-02T13:14:44Z</time>
      </trkpt>
      <trkpt lat="48.78229" lon="-3.33439">
        <ele>96.75</ele>
        <time>2013-12-02T13:14:59Z</time>
      </trkpt>
      <trkpt lat="48.78287" lon="-3.33344">
        <ele>98.67</ele>
        <time>2013-12-02T13:15:16Z</time>
      </trkpt>
      <trkpt lat="48.78347" lon="-3.33223">
        <ele>99.63</ele>
        <time>2013-12-02T13:15:35Z</time>
      </trkpt>
      <trkpt lat="48.78408" lon="-3.33086">
        <ele>97.23</ele>
        <time>2013-12-02T13:15:54Z</time>
      </trkpt>
      <trkpt lat="48.78459" lon="-3.32971">
        <ele>96.27</ele>
        <time>2013-12-02T13:16:09Z</time>
      </trkpt>
      <trkpt lat="48.78463" lon="-3.32964">
        <ele>96.27</ele>
        <time>2013-12-02T13:16:10Z</time>
      </trkpt>
      <trkpt lat="48.78467" lon="-3.32957">
        <ele>96.27</ele>
        <time>2013-12-02T13:16:11Z</time>
      </trkpt>
      <trkpt lat="48.78472" lon="-3.32951">
        <ele>96.27</ele>
        <time>2013-12-02T13:16:12Z</time>
      </trkpt>
      <trkpt lat="48.78477" lon="-3.32946">
        <ele>96.27</ele>
        <time>2013-12-02T13:16:13Z</time>
      </trkpt>
      <trkpt lat="48.78482" lon="-3.32941">
        <ele>95.79</ele>
        <time>2013-12-02T13:16:14Z</time>
      </trkpt>
      <trkpt lat="48.78487" lon="-3.32937">
        <ele>95.79</ele>
        <time>2013-12-02T13:16:15Z</time>
      </trkpt>
      <trkpt lat="48.78492" lon="-3.32931">
        <ele>96.27</ele>
        <time>2013-12-02T13:16:16Z</time>
      </trkpt>
      <trkpt lat="48.78495" lon="-3.32923">
        <ele>96.75</ele>
        <time>2013-12-02T13:16:17Z</time>
      </trkpt>
      <trkpt lat="48.785" lon="-3.32907">
        <ele>97.23</ele>
        <time>2013-12-02T13:16:19Z</time>
      </trkpt>
      <trkpt lat="48.78503" lon="-3.329">
        <ele>96.75</ele>
        <time>2013-12-02T13:16:20Z</time>
      </trkpt>
      <trkpt lat="48.78507" lon="-3.32894">
        <ele>96.75</ele>
        <time>2013-12-02T13:16:21Z</time>
      </trkpt>
      <trkpt lat="48.78517" lon="-3.32884">
        <ele>96.27</ele>
        <time>2013-12-02T13:16:23Z</time>
      </trkpt>
      <trkpt lat="48.78521" lon="-3.32877">
        <ele>97.23</ele>
        <time>2013-12-02T13:16:24Z</time>
      </trkpt>
      <trkpt lat="48.78524" lon="-3.3287">
        <ele>96.27</ele>
        <time>2013-12-02T13:16:25Z</time>
      </trkpt>
      <trkpt lat="48.78583" lon="-3.32752">
        <ele>96.75</ele>
        <time>2013-12-02T13:16:41Z</time>
      </trkpt>
      <trkpt lat="48.78619" lon="-3.32637">
        <ele>93.87</ele>
        <time>2013-12-02T13:16:54Z</time>
      </trkpt>
      <trkpt lat="48.78649" lon="-3.32595">
        <ele>92.9</ele>
        <time>2013-12-02T13:17:00Z</time>
      </trkpt>
      <trkpt lat="48.78728" lon="-3.32525">
        <ele>90.02</ele>
        <time>2013-12-02T13:17:12Z</time>
      </trkpt>
      <trkpt lat="48.78779" lon="-3.32468">
        <ele>88.58</ele>
        <time>2013-12-02T13:17:20Z</time>
      </trkpt>
      <trkpt lat="48.78867" lon="-3.32337">
        <ele>86.66</ele>
        <time>2013-12-02T13:17:37Z</time>
      </trkpt>
      <trkpt lat="48.7897" lon="-3.32202">
        <ele>83.77</ele>
        <time>2013-12-02T13:17:56Z</time>
      </trkpt>
      <trkpt lat="48.78976" lon="-3.32195">
        <ele>87.62</ele>
        <time>2013-12-02T13:17:57Z</time>
      </trkpt>
      <trkpt lat="48.79004" lon="-3.32162">
        <ele>84.25</ele>
        <time>2013-12-02T13:18:02Z</time>
      </trkpt>
      <trkpt lat="48.79118" lon="-3.32027">
        <ele>83.77</ele>
        <time>2013-12-02T13:18:22Z</time>
      </trkpt>
      <trkpt lat="48.79225" lon="-3.31866">
        <ele>82.81</ele>
        <time>2013-12-02T13:18:44Z</time>
      </trkpt>
      <trkpt lat="48.79299" lon="-3.31714">
        <ele>82.33</ele>
        <time>2013-12-02T13:19:03Z</time>
      </trkpt>
      <trkpt lat="48.79379" lon="-3.31547">
        <ele>81.37</ele>
        <time>2013-12-02T13:19:24Z</time>
      </trkpt>
      <trkpt lat="48.7945" lon="-3.31462">
        <ele>81.37</ele>
        <time>2013-12-02T13:19:38Z</time>
      </trkpt>
      <trkpt lat="48.79576" lon="-3.31391">
        <ele>79.93</ele>
        <time>2013-12-02T13:19:58Z</time>
      </trkpt>
      <trkpt lat="48.79693" lon="-3.31321">
        <ele>79.45</ele>
        <time>2013-12-02T13:20:17Z</time>
      </trkpt>
      <trkpt lat="48.79718" lon="-3.31296">
        <ele>79.45</ele>
        <time>2013-12-02T13:20:26Z</time>
      </trkpt>
      <trkpt lat="48.79733" lon="-3.31292">
        <ele>79.45</ele>
        <time>2013-12-02T13:20:30Z</time>
      </trkpt>
      <trkpt lat="48.79738" lon="-3.31291">
        <ele>79.93</ele>
        <time>2013-12-02T13:20:31Z</time>
      </trkpt>
      <trkpt lat="48.79743" lon="-3.31289">
        <ele>79.93</ele>
        <time>2013-12-02T13:20:32Z</time>
      </trkpt>
      <trkpt lat="48.79748" lon="-3.31287">
        <ele>80.41</ele>
        <time>2013-12-02T13:20:33Z</time>
      </trkpt>
      <trkpt lat="48.79753" lon="-3.31285">
        <ele>80.41</ele>
        <time>2013-12-02T13:20:34Z</time>
      </trkpt>
      <trkpt lat="48.79831" lon="-3.31221">
        <ele>82.81</ele>
        <time>2013-12-02T13:20:50Z</time>
      </trkpt>
      <trkpt lat="48.79909" lon="-3.31151">
        <ele>83.29</ele>
        <time>2013-12-02T13:21:06Z</time>
      </trkpt>
      <trkpt lat="48.80013" lon="-3.31086">
        <ele>81.37</ele>
        <time>2013-12-02T13:21:22Z</time>
      </trkpt>
      <trkpt lat="48.80119" lon="-3.31013">
        <ele>79.45</ele>
        <time>2013-12-02T13:21:37Z</time>
      </trkpt>
      <trkpt lat="48.80213" lon="-3.30938">
        <ele>78.97</ele>
        <time>2013-12-02T13:21:52Z</time>
      </trkpt>
      <trkpt lat="48.80317" lon="-3.30875">
        <ele>78</ele>
        <time>2013-12-02T13:22:08Z</time>
      </trkpt>
      <trkpt lat="48.80436" lon="-3.30817">
        <ele>76.56</ele>
        <time>2013-12-02T13:22:26Z</time>
      </trkpt>
      <trkpt lat="48.8056" lon="-3.30738">
        <ele>76.08</ele>
        <time>2013-12-02T13:22:45Z</time>
      </trkpt>
      <trkpt lat="48.80651" lon="-3.30615">
        <ele>74.16</ele>
        <time>2013-12-02T13:23:02Z</time>
      </trkpt>
      <trkpt lat="48.80713" lon="-3.30478">
        <ele>74.16</ele>
        <time>2013-12-02T13:23:18Z</time>
      </trkpt>
      <trkpt lat="48.80759" lon="-3.30316">
        <ele>73.2</ele>
        <time>2013-12-02T13:23:36Z</time>
      </trkpt>
      <trkpt lat="48.80828" lon="-3.3017">
        <ele>71.76</ele>
        <time>2013-12-02T13:23:54Z</time>
      </trkpt>
      <trkpt lat="48.809" lon="-3.30044">
        <ele>69.83</ele>
        <time>2013-12-02T13:24:10Z</time>
      </trkpt>
      <trkpt lat="48.80955" lon="-3.29983">
        <ele>70.31</ele>
        <time>2013-12-02T13:24:20Z</time>
      </trkpt>
      <trkpt lat="48.80976" lon="-3.29942">
        <ele>69.35</ele>
        <time>2013-12-02T13:24:25Z</time>
      </trkpt>
      <trkpt lat="48.81048" lon="-3.29779">
        <ele>67.91</ele>
        <time>2013-12-02T13:24:43Z</time>
      </trkpt>
      <trkpt lat="48.81078" lon="-3.2972">
        <ele>66.47</ele>
        <time>2013-12-02T13:24:50Z</time>
      </trkpt>
      <trkpt lat="48.81096" lon="-3.29701">
        <ele>67.43</ele>
        <time>2013-12-02T13:24:53Z</time>
      </trkpt>
      <trkpt lat="48.81176" lon="-3.29639">
        <ele>65.03</ele>
        <time>2013-12-02T13:25:08Z</time>
      </trkpt>
      <trkpt lat="48.8118" lon="-3.29633">
        <ele>65.51</ele>
        <time>2013-12-02T13:25:09Z</time>
      </trkpt>
      <trkpt lat="48.81184" lon="-3.29625">
        <ele>65.51</ele>
        <time>2013-12-02T13:25:10Z</time>
      </trkpt>
      <trkpt lat="48.81186" lon="-3.29615">
        <ele>65.51</ele>
        <time>2013-12-02T13:25:11Z</time>
      </trkpt>
      <trkpt lat="48.81188" lon="-3.29606">
        <ele>64.55</ele>
        <time>2013-12-02T13:25:12Z</time>
      </trkpt>
      <trkpt lat="48.81189" lon="-3.29596">
        <ele>64.55</ele>
        <time>2013-12-02T13:25:13Z</time>
      </trkpt>
      <trkpt lat="48.81192" lon="-3.29564">
        <ele>64.07</ele>
        <time>2013-12-02T13:25:17Z</time>
      </trkpt>
      <trkpt lat="48.81193" lon="-3.29558">
        <ele>64.07</ele>
        <time>2013-12-02T13:25:18Z</time>
      </trkpt>
      <trkpt lat="48.81196" lon="-3.29553">
        <ele>64.07</ele>
        <time>2013-12-02T13:25:19Z</time>
      </trkpt>
      <trkpt lat="48.81199" lon="-3.29548">
        <ele>64.55</ele>
        <time>2013-12-02T13:25:20Z</time>
      </trkpt>
      <trkpt lat="48.81201" lon="-3.29544">
        <ele>64.07</ele>
        <time>2013-12-02T13:25:21Z</time>
      </trkpt>
      <trkpt lat="48.81205" lon="-3.29542">
        <ele>64.07</ele>
        <time>2013-12-02T13:25:22Z</time>
      </trkpt>
      <trkpt lat="48.81209" lon="-3.29541">
        <ele>64.07</ele>
        <time>2013-12-02T13:25:23Z</time>
      </trkpt>
      <trkpt lat="48.81213" lon="-3.2954">
        <ele>64.55</ele>
        <time>2013-12-02T13:25:24Z</time>
      </trkpt>
      <trkpt lat="48.81224" lon="-3.29539">
        <ele>64.55</ele>
        <time>2013-12-02T13:25:26Z</time>
      </trkpt>
      <trkpt lat="48.8127" lon="-3.29538">
        <ele>64.07</ele>
        <time>2013-12-02T13:25:34Z</time>
      </trkpt>
      <trkpt lat="48.81346" lon="-3.2949">
        <ele>62.62</ele>
        <time>2013-12-02T13:25:48Z</time>
      </trkpt>
      <trkpt lat="48.8141" lon="-3.29393">
        <ele>61.66</ele>
        <time>2013-12-02T13:26:02Z</time>
      </trkpt>
      <trkpt lat="48.81456" lon="-3.29287">
        <ele>61.18</ele>
        <time>2013-12-02T13:26:15Z</time>
      </trkpt>
      <trkpt lat="48.81477" lon="-3.29232">
        <ele>60.7</ele>
        <time>2013-12-02T13:26:22Z</time>
      </trkpt>
      <trkpt lat="48.81481" lon="-3.29225">
        <ele>60.7</ele>
        <time>2013-12-02T13:26:23Z</time>
      </trkpt>
      <trkpt lat="48.81527" lon="-3.29148">
        <ele>62.14</ele>
        <time>2013-12-02T13:26:35Z</time>
      </trkpt>
      <trkpt lat="48.81575" lon="-3.29095">
        <ele>62.62</ele>
        <time>2013-12-02T13:26:48Z</time>
      </trkpt>
      <trkpt lat="48.81583" lon="-3.29088">
        <ele>62.14</ele>
        <time>2013-12-02T13:26:58Z</time>
      </trkpt>
      <trkpt lat="48.81582" lon="-3.29089">
        <ele>62.14</ele>
        <time>2013-12-02T13:27:18Z</time>
      </trkpt>
      <trkpt lat="48.81585" lon="-3.29087">
        <ele>62.62</ele>
        <time>2013-12-02T13:27:20Z</time>
      </trkpt>
      <trkpt lat="48.81629" lon="-3.29045">
        <ele>63.58</ele>
        <time>2013-12-02T13:27:32Z</time>
      </trkpt>
      <trkpt lat="48.81725" lon="-3.28962">
        <ele>63.1</ele>
        <time>2013-12-02T13:27:51Z</time>
      </trkpt>
      <trkpt lat="48.81828" lon="-3.28872">
        <ele>61.18</ele>
        <time>2013-12-02T13:28:09Z</time>
      </trkpt>
      <trkpt lat="48.81874" lon="-3.28807">
        <ele>59.74</ele>
        <time>2013-12-02T13:28:18Z</time>
      </trkpt>
      <trkpt lat="48.81929" lon="-3.28653">
        <ele>59.26</ele>
        <time>2013-12-02T13:28:34Z</time>
      </trkpt>
      <trkpt lat="48.81986" lon="-3.28516">
        <ele>57.82</ele>
        <time>2013-12-02T13:28:51Z</time>
      </trkpt>
      <trkpt lat="48.82083" lon="-3.2839">
        <ele>56.86</ele>
        <time>2013-12-02T13:29:10Z</time>
      </trkpt>
      <trkpt lat="48.82178" lon="-3.28289">
        <ele>55.41</ele>
        <time>2013-12-02T13:29:27Z</time>
      </trkpt>
      <trkpt lat="48.82262" lon="-3.28263">
        <ele>52.53</ele>
        <time>2013-12-02T13:29:39Z</time>
      </trkpt>
      <trkpt lat="48.82353" lon="-3.28268">
        <ele>51.09</ele>
        <time>2013-12-02T13:29:52Z</time>
      </trkpt>
      <trkpt lat="48.82457" lon="-3.28276">
        <ele>50.13</ele>
        <time>2013-12-02T13:30:08Z</time>
      </trkpt>
      <trkpt lat="48.82568" lon="-3.28306">
        <ele>49.65</ele>
        <time>2013-12-02T13:30:25Z</time>
      </trkpt>
      <trkpt lat="48.82663" lon="-3.28335">
        <ele>46.76</ele>
        <time>2013-12-02T13:30:38Z</time>
      </trkpt>
      <trkpt lat="48.82752" lon="-3.28335">
        <ele>45.32</ele>
        <time>2013-12-02T13:30:51Z</time>
      </trkpt>
      <trkpt lat="48.82861" lon="-3.28312">
        <ele>47.24</ele>
        <time>2013-12-02T13:31:09Z</time>
      </trkpt>
      <trkpt lat="48.82953" lon="-3.28273">
        <ele>48.68</ele>
        <time>2013-12-02T13:31:25Z</time>
      </trkpt>
      <trkpt lat="48.83077" lon="-3.28206">
        <ele>48.2</ele>
        <time>2013-12-02T13:31:46Z</time>
      </trkpt>
      <trkpt lat="48.83099" lon="-3.28187">
        <ele>48.2</ele>
        <time>2013-12-02T13:31:50Z</time>
      </trkpt>
      <trkpt lat="48.83151" lon="-3.2812">
        <ele>48.68</ele>
        <time>2013-12-02T13:32:01Z</time>
      </trkpt>
      <trkpt lat="48.83157" lon="-3.28116">
        <ele>48.2</ele>
        <time>2013-12-02T13:32:02Z</time>
      </trkpt>
      <trkpt lat="48.83162" lon="-3.28113">
        <ele>48.2</ele>
        <time>2013-12-02T13:32:03Z</time>
      </trkpt>
      <trkpt lat="48.83168" lon="-3.28111">
        <ele>48.2</ele>
        <time>2013-12-02T13:32:04Z</time>
      </trkpt>
      <trkpt lat="48.83173" lon="-3.28108">
        <ele>48.2</ele>
        <time>2013-12-02T13:32:05Z</time>
      </trkpt>
      <trkpt lat="48.83179" lon="-3.28107">
        <ele>48.2</ele>
        <time>2013-12-02T13:32:06Z</time>
      </trkpt>
      <trkpt lat="48.83277" lon="-3.28091">
        <ele>45.32</ele>
        <time>2013-12-02T13:32:21Z</time>
      </trkpt>
      <trkpt lat="48.83309" lon="-3.28086">
        <ele>41.95</ele>
        <time>2013-12-02T13:32:25Z</time>
      </trkpt>
      <trkpt lat="48.83318" lon="-3.28086">
        <ele>41.95</ele>
        <time>2013-12-02T13:32:26Z</time>
      </trkpt>
      <trkpt lat="48.83369" lon="-3.28075">
        <ele>38.59</ele>
        <time>2013-12-02T13:32:32Z</time>
      </trkpt>
      <trkpt lat="48.83377" lon="-3.2807">
        <ele>38.11</ele>
        <time>2013-12-02T13:32:33Z</time>
      </trkpt>
      <trkpt lat="48.83395" lon="-3.28058">
        <ele>36.67</ele>
        <time>2013-12-02T13:32:35Z</time>
      </trkpt>
      <trkpt lat="48.83451" lon="-3.2802">
        <ele>35.23</ele>
        <time>2013-12-02T13:32:42Z</time>
      </trkpt>
      <trkpt lat="48.83457" lon="-3.28013">
        <ele>35.23</ele>
        <time>2013-12-02T13:32:43Z</time>
      </trkpt>
      <trkpt lat="48.83463" lon="-3.28005">
        <ele>35.23</ele>
        <time>2013-12-02T13:32:44Z</time>
      </trkpt>
      <trkpt lat="48.83493" lon="-3.27954">
        <ele>35.71</ele>
        <time>2013-12-02T13:32:51Z</time>
      </trkpt>
      <trkpt lat="48.83495" lon="-3.27946">
        <ele>35.23</ele>
        <time>2013-12-02T13:32:52Z</time>
      </trkpt>
      <trkpt lat="48.83498" lon="-3.27937">
        <ele>35.23</ele>
        <time>2013-12-02T13:32:53Z</time>
      </trkpt>
      <trkpt lat="48.83516" lon="-3.27811">
        <ele>34.74</ele>
        <time>2013-12-02T13:33:06Z</time>
      </trkpt>
      <trkpt lat="48.83515" lon="-3.27802">
        <ele>34.74</ele>
        <time>2013-12-02T13:33:07Z</time>
      </trkpt>
      <trkpt lat="48.83498" lon="-3.27702">
        <ele>31.38</ele>
        <time>2013-12-02T13:33:17Z</time>
      </trkpt>
      <trkpt lat="48.83495" lon="-3.2768">
        <ele>30.9</ele>
        <time>2013-12-02T13:33:19Z</time>
      </trkpt>
      <trkpt lat="48.83495" lon="-3.2767">
        <ele>29.46</ele>
        <time>2013-12-02T13:33:20Z</time>
      </trkpt>
      <trkpt lat="48.83495" lon="-3.2766">
        <ele>28.98</ele>
        <time>2013-12-02T13:33:21Z</time>
      </trkpt>
      <trkpt lat="48.83496" lon="-3.27652">
        <ele>28.98</ele>
        <time>2013-12-02T13:33:22Z</time>
      </trkpt>
      <trkpt lat="48.83499" lon="-3.27644">
        <ele>28.02</ele>
        <time>2013-12-02T13:33:23Z</time>
      </trkpt>
      <trkpt lat="48.83503" lon="-3.27637">
        <ele>27.53</ele>
        <time>2013-12-02T13:33:24Z</time>
      </trkpt>
      <trkpt lat="48.83508" lon="-3.27631">
        <ele>28.5</ele>
        <time>2013-12-02T13:33:25Z</time>
      </trkpt>
      <trkpt lat="48.83513" lon="-3.27625">
        <ele>27.05</ele>
        <time>2013-12-02T13:33:26Z</time>
      </trkpt>
      <trkpt lat="48.83542" lon="-3.27593">
        <ele>25.61</ele>
        <time>2013-12-02T13:33:31Z</time>
      </trkpt>
      <trkpt lat="48.83546" lon="-3.27585">
        <ele>25.61</ele>
        <time>2013-12-02T13:33:32Z</time>
      </trkpt>
      <trkpt lat="48.83549" lon="-3.27575">
        <ele>25.61</ele>
        <time>2013-12-02T13:33:33Z</time>
      </trkpt>
      <trkpt lat="48.83552" lon="-3.27565">
        <ele>25.61</ele>
        <time>2013-12-02T13:33:34Z</time>
      </trkpt>
      <trkpt lat="48.83554" lon="-3.27555">
        <ele>25.61</ele>
        <time>2013-12-02T13:33:35Z</time>
      </trkpt>
      <trkpt lat="48.83556" lon="-3.27545">
        <ele>25.61</ele>
        <time>2013-12-02T13:33:36Z</time>
      </trkpt>
      <trkpt lat="48.83558" lon="-3.27534">
        <ele>25.13</ele>
        <time>2013-12-02T13:33:37Z</time>
      </trkpt>
      <trkpt lat="48.83548" lon="-3.27423">
        <ele>25.13</ele>
        <time>2013-12-02T13:33:48Z</time>
      </trkpt>
      <trkpt lat="48.83532" lon="-3.27311">
        <ele>23.69</ele>
        <time>2013-12-02T13:34:00Z</time>
      </trkpt>
      <trkpt lat="48.83528" lon="-3.27302">
        <ele>23.69</ele>
        <time>2013-12-02T13:34:01Z</time>
      </trkpt>
      <trkpt lat="48.83524" lon="-3.27292">
        <ele>23.21</ele>
        <time>2013-12-02T13:34:02Z</time>
      </trkpt>
      <trkpt lat="48.83504" lon="-3.27258">
        <ele>20.81</ele>
        <time>2013-12-02T13:34:06Z</time>
      </trkpt>
      <trkpt lat="48.83483" lon="-3.27228">
        <ele>17.44</ele>
        <time>2013-12-02T13:34:10Z</time>
      </trkpt>
      <trkpt lat="48.83459" lon="-3.27195">
        <ele>14.08</ele>
        <time>2013-12-02T13:34:14Z</time>
      </trkpt>
      <trkpt lat="48.83454" lon="-3.27185">
        <ele>14.08</ele>
        <time>2013-12-02T13:34:15Z</time>
      </trkpt>
      <trkpt lat="48.8345" lon="-3.27176">
        <ele>13.6</ele>
        <time>2013-12-02T13:34:16Z</time>
      </trkpt>
      <trkpt lat="48.83447" lon="-3.27166">
        <ele>13.6</ele>
        <time>2013-12-02T13:34:17Z</time>
      </trkpt>
      <trkpt lat="48.83446" lon="-3.27157">
        <ele>13.6</ele>
        <time>2013-12-02T13:34:18Z</time>
      </trkpt>
      <trkpt lat="48.83446" lon="-3.27147">
        <ele>11.67</ele>
        <time>2013-12-02T13:34:19Z</time>
      </trkpt>
      <trkpt lat="48.83447" lon="-3.27136">
        <ele>11.19</ele>
        <time>2013-12-02T13:34:20Z</time>
      </trkpt>
      <trkpt lat="48.83447" lon="-3.27123">
        <ele>10.23</ele>
        <time>2013-12-02T13:34:21Z</time>
      </trkpt>
      <trkpt lat="48.83445" lon="-3.27111">
        <ele>9.27</ele>
        <time>2013-12-02T13:34:22Z</time>
      </trkpt>
      <trkpt lat="48.83443" lon="-3.27098">
        <ele>7.83</ele>
        <time>2013-12-02T13:34:23Z</time>
      </trkpt>
      <trkpt lat="48.83439" lon="-3.27085">
        <ele>7.35</ele>
        <time>2013-12-02T13:34:24Z</time>
      </trkpt>
      <trkpt lat="48.83434" lon="-3.27074">
        <ele>6.87</ele>
        <time>2013-12-02T13:34:25Z</time>
      </trkpt>
      <trkpt lat="48.83427" lon="-3.27062">
        <ele>5.91</ele>
        <time>2013-12-02T13:34:26Z</time>
      </trkpt>
      <trkpt lat="48.83393" lon="-3.26996">
        <ele>3.5</ele>
        <time>2013-12-02T13:34:32Z</time>
      </trkpt>
      <trkpt lat="48.8339" lon="-3.26985">
        <ele>3.02</ele>
        <time>2013-12-02T13:34:33Z</time>
      </trkpt>
      <trkpt lat="48.83388" lon="-3.26974">
        <ele>2.54</ele>
        <time>2013-12-02T13:34:34Z</time>
      </trkpt>
      <trkpt lat="48.83387" lon="-3.26963">
        <ele>2.54</ele>
        <time>2013-12-02T13:34:35Z</time>
      </trkpt>
      <trkpt lat="48.83387" lon="-3.26953">
        <ele>2.06</ele>
        <time>2013-12-02T13:34:36Z</time>
      </trkpt>
      <trkpt lat="48.83379" lon="-3.26786">
        <ele>3.02</ele>
        <time>2013-12-02T13:34:55Z</time>
      </trkpt>
      <trkpt lat="48.83387" lon="-3.26601">
        <ele>3.02</ele>
        <time>2013-12-02T13:35:17Z</time>
      </trkpt>
      <trkpt lat="48.83418" lon="-3.26432">
        <ele>2.06</ele>
        <time>2013-12-02T13:35:38Z</time>
      </trkpt>
      <trkpt lat="48.83475" lon="-3.26275">
        <ele>1.58</ele>
        <time>2013-12-02T13:35:58Z</time>
      </trkpt>
      <trkpt lat="48.83537" lon="-3.26188">
        <ele>1.58</ele>
        <time>2013-12-02T13:36:13Z</time>
      </trkpt>
      <trkpt lat="48.83582" lon="-3.26146">
        <ele>1.1</ele>
        <time>2013-12-02T13:36:22Z</time>
      </trkpt>
      <trkpt lat="48.83586" lon="-3.26139">
        <ele>1.58</ele>
        <time>2013-12-02T13:36:23Z</time>
      </trkpt>
      <trkpt lat="48.83589" lon="-3.26132">
        <ele>1.58</ele>
        <time>2013-12-02T13:36:24Z</time>
      </trkpt>
      <trkpt lat="48.83592" lon="-3.26123">
        <ele>1.58</ele>
        <time>2013-12-02T13:36:25Z</time>
      </trkpt>
      <trkpt lat="48.83594" lon="-3.26114">
        <ele>1.58</ele>
        <time>2013-12-02T13:36:26Z</time>
      </trkpt>
      <trkpt lat="48.83595" lon="-3.26104">
        <ele>2.06</ele>
        <time>2013-12-02T13:36:27Z</time>
      </trkpt>
      <trkpt lat="48.83595" lon="-3.26095">
        <ele>2.06</ele>
        <time>2013-12-02T13:36:28Z</time>
      </trkpt>
      <trkpt lat="48.83594" lon="-3.26086">
        <ele>1.58</ele>
        <time>2013-12-02T13:36:29Z</time>
      </trkpt>
      <trkpt lat="48.83592" lon="-3.25971">
        <ele>3.5</ele>
        <time>2013-12-02T13:36:42Z</time>
      </trkpt>
      <trkpt lat="48.83593" lon="-3.25939">
        <ele>4.46</ele>
        <time>2013-12-02T13:36:46Z</time>
      </trkpt>
      <trkpt lat="48.83608" lon="-3.25859">
        <ele>7.35</ele>
        <time>2013-12-02T13:36:57Z</time>
      </trkpt>
      <trkpt lat="48.83611" lon="-3.25846">
        <ele>8.31</ele>
        <time>2013-12-02T13:36:59Z</time>
      </trkpt>
      <trkpt lat="48.83644" lon="-3.25756">
        <ele>11.19</ele>
        <time>2013-12-02T13:37:13Z</time>
      </trkpt>
      <trkpt lat="48.83693" lon="-3.25638">
        <ele>13.12</ele>
        <time>2013-12-02T13:37:31Z</time>
      </trkpt>
      <trkpt lat="48.83716" lon="-3.25594">
        <ele>13.6</ele>
        <time>2013-12-02T13:37:38Z</time>
      </trkpt>
      <trkpt lat="48.83772" lon="-3.25524">
        <ele>13.12</ele>
        <time>2013-12-02T13:37:51Z</time>
      </trkpt>
      <trkpt lat="48.83798" lon="-3.25506">
        <ele>12.63</ele>
        <time>2013-12-02T13:37:56Z</time>
      </trkpt>
      <trkpt lat="48.83802" lon="-3.25499">
        <ele>12.63</ele>
        <time>2013-12-02T13:37:57Z</time>
      </trkpt>
      <trkpt lat="48.83804" lon="-3.2549">
        <ele>13.12</ele>
        <time>2013-12-02T13:37:58Z</time>
      </trkpt>
      <trkpt lat="48.83805" lon="-3.25481">
        <ele>13.6</ele>
        <time>2013-12-02T13:37:59Z</time>
      </trkpt>
      <trkpt lat="48.83806" lon="-3.25472">
        <ele>13.6</ele>
        <time>2013-12-02T13:38:00Z</time>
      </trkpt>
      <trkpt lat="48.83805" lon="-3.25463">
        <ele>12.15</ele>
        <time>2013-12-02T13:38:01Z</time>
      </trkpt>
      <trkpt lat="48.83804" lon="-3.25453">
        <ele>12.15</ele>
        <time>2013-12-02T13:38:02Z</time>
      </trkpt>
      <trkpt lat="48.83803" lon="-3.25444">
        <ele>11.67</ele>
        <time>2013-12-02T13:38:03Z</time>
      </trkpt>
      <trkpt lat="48.83801" lon="-3.25436">
        <ele>12.15</ele>
        <time>2013-12-02T13:38:04Z</time>
      </trkpt>
      <trkpt lat="48.83787" lon="-3.25348">
        <ele>13.12</ele>
        <time>2013-12-02T13:38:15Z</time>
      </trkpt>
      <trkpt lat="48.83788" lon="-3.25341">
        <ele>13.6</ele>
        <time>2013-12-02T13:38:16Z</time>
      </trkpt>
      <trkpt lat="48.83789" lon="-3.25334">
        <ele>13.6</ele>
        <time>2013-12-02T13:38:17Z</time>
      </trkpt>
      <trkpt lat="48.83793" lon="-3.25314">
        <ele>15.04</ele>
        <time>2013-12-02T13:38:20Z</time>
      </trkpt>
      <trkpt lat="48.83798" lon="-3.25288">
        <ele>16.48</ele>
        <time>2013-12-02T13:38:24Z</time>
      </trkpt>
      <trkpt lat="48.83799" lon="-3.25262">
        <ele>17.92</ele>
        <time>2013-12-02T13:38:28Z</time>
      </trkpt>
      <trkpt lat="48.838" lon="-3.25256">
        <ele>18.4</ele>
        <time>2013-12-02T13:38:29Z</time>
      </trkpt>
      <trkpt lat="48.83801" lon="-3.25251">
        <ele>18.4</ele>
        <time>2013-12-02T13:38:30Z</time>
      </trkpt>
      <trkpt lat="48.83803" lon="-3.25246">
        <ele>19.36</ele>
        <time>2013-12-02T13:38:31Z</time>
      </trkpt>
      <trkpt lat="48.83805" lon="-3.25241">
        <ele>19.36</ele>
        <time>2013-12-02T13:38:32Z</time>
      </trkpt>
      <trkpt lat="48.83807" lon="-3.25237">
        <ele>19.84</ele>
        <time>2013-12-02T13:38:33Z</time>
      </trkpt>
      <trkpt lat="48.8381" lon="-3.25234">
        <ele>20.32</ele>
        <time>2013-12-02T13:38:34Z</time>
      </trkpt>
      <trkpt lat="48.83814" lon="-3.25231">
        <ele>21.29</ele>
        <time>2013-12-02T13:38:35Z</time>
      </trkpt>
      <trkpt lat="48.83818" lon="-3.25228">
        <ele>20.81</ele>
        <time>2013-12-02T13:38:36Z</time>
      </trkpt>
      <trkpt lat="48.83821" lon="-3.25225">
        <ele>20.81</ele>
        <time>2013-12-02T13:38:37Z</time>
      </trkpt>
      <trkpt lat="48.83825" lon="-3.25222">
        <ele>20.81</ele>
        <time>2013-12-02T13:38:38Z</time>
      </trkpt>
      <trkpt lat="48.83832" lon="-3.25216">
        <ele>20.81</ele>
        <time>2013-12-02T13:38:40Z</time>
      </trkpt>
      <trkpt lat="48.83874" lon="-3.25162">
        <ele>24.17</ele>
        <time>2013-12-02T13:38:52Z</time>
      </trkpt>
      <trkpt lat="48.83915" lon="-3.25097">
        <ele>27.05</ele>
        <time>2013-12-02T13:39:04Z</time>
      </trkpt>
      <trkpt lat="48.83969" lon="-3.25008">
        <ele>30.42</ele>
        <time>2013-12-02T13:39:20Z</time>
      </trkpt>
      <trkpt lat="48.84045" lon="-3.24909">
        <ele>30.9</ele>
        <time>2013-12-02T13:39:39Z</time>
      </trkpt>
      <trkpt lat="48.84125" lon="-3.24843">
        <ele>32.34</ele>
        <time>2013-12-02T13:39:55Z</time>
      </trkpt>
      <trkpt lat="48.84157" lon="-3.2482">
        <ele>34.74</ele>
        <time>2013-12-02T13:40:02Z</time>
      </trkpt>
      <trkpt lat="48.84213" lon="-3.24787">
        <ele>31.38</ele>
        <time>2013-12-02T13:40:12Z</time>
      </trkpt>
      <trkpt lat="48.84249" lon="-3.24782">
        <ele>28.98</ele>
        <time>2013-12-02T13:40:16Z</time>
      </trkpt>
      <trkpt lat="48.84311" lon="-3.24782">
        <ele>26.09</ele>
        <time>2013-12-02T13:40:23Z</time>
      </trkpt>
      <trkpt lat="48.84352" lon="-3.24761">
        <ele>25.13</ele>
        <time>2013-12-02T13:40:29Z</time>
      </trkpt>
      <trkpt lat="48.84356" lon="-3.24755">
        <ele>25.13</ele>
        <time>2013-12-02T13:40:30Z</time>
      </trkpt>
      <trkpt lat="48.8436" lon="-3.24749">
        <ele>25.13</ele>
        <time>2013-12-02T13:40:31Z</time>
      </trkpt>
      <trkpt lat="48.84364" lon="-3.24742">
        <ele>25.13</ele>
        <time>2013-12-02T13:40:32Z</time>
      </trkpt>
      <trkpt lat="48.84366" lon="-3.24736">
        <ele>25.13</ele>
        <time>2013-12-02T13:40:33Z</time>
      </trkpt>
      <trkpt lat="48.84383" lon="-3.24697">
        <ele>28.02</ele>
        <time>2013-12-02T13:40:40Z</time>
      </trkpt>
      <trkpt lat="48.84386" lon="-3.24693">
        <ele>28.5</ele>
        <time>2013-12-02T13:40:41Z</time>
      </trkpt>
      <trkpt lat="48.84396" lon="-3.2468">
        <ele>29.46</ele>
        <time>2013-12-02T13:40:44Z</time>
      </trkpt>
      <trkpt lat="48.844" lon="-3.24677">
        <ele>29.94</ele>
        <time>2013-12-02T13:40:45Z</time>
      </trkpt>
      <trkpt lat="48.84404" lon="-3.24674">
        <ele>30.42</ele>
        <time>2013-12-02T13:40:46Z</time>
      </trkpt>
      <trkpt lat="48.84407" lon="-3.24672">
        <ele>31.38</ele>
        <time>2013-12-02T13:40:47Z</time>
      </trkpt>
      <trkpt lat="48.84412" lon="-3.24671">
        <ele>31.86</ele>
        <time>2013-12-02T13:40:48Z</time>
      </trkpt>
      <trkpt lat="48.84416" lon="-3.2467">
        <ele>31.86</ele>
        <time>2013-12-02T13:40:49Z</time>
      </trkpt>
      <trkpt lat="48.84434" lon="-3.24668">
        <ele>32.82</ele>
        <time>2013-12-02T13:40:53Z</time>
      </trkpt>
      <trkpt lat="48.84439" lon="-3.24667">
        <ele>33.3</ele>
        <time>2013-12-02T13:40:54Z</time>
      </trkpt>
      <trkpt lat="48.84443" lon="-3.24665">
        <ele>33.78</ele>
        <time>2013-12-02T13:40:55Z</time>
      </trkpt>
      <trkpt lat="48.84447" lon="-3.24662">
        <ele>33.78</ele>
        <time>2013-12-02T13:40:56Z</time>
      </trkpt>
      <trkpt lat="48.84451" lon="-3.24659">
        <ele>33.3</ele>
        <time>2013-12-02T13:40:57Z</time>
      </trkpt>
      <trkpt lat="48.845" lon="-3.24608">
        <ele>35.71</ele>
        <time>2013-12-02T13:41:09Z</time>
      </trkpt>
      <trkpt lat="48.84503" lon="-3.24601">
        <ele>35.71</ele>
        <time>2013-12-02T13:41:10Z</time>
      </trkpt>
      <trkpt lat="48.84504" lon="-3.24593">
        <ele>36.19</ele>
        <time>2013-12-02T13:41:11Z</time>
      </trkpt>
      <trkpt lat="48.84504" lon="-3.24585">
        <ele>36.19</ele>
        <time>2013-12-02T13:41:12Z</time>
      </trkpt>
      <trkpt lat="48.84504" lon="-3.24576">
        <ele>36.19</ele>
        <time>2013-12-02T13:41:13Z</time>
      </trkpt>
      <trkpt lat="48.84503" lon="-3.24568">
        <ele>36.19</ele>
        <time>2013-12-02T13:41:14Z</time>
      </trkpt>
      <trkpt lat="48.84502" lon="-3.2456">
        <ele>36.67</ele>
        <time>2013-12-02T13:41:15Z</time>
      </trkpt>
      <trkpt lat="48.84497" lon="-3.24512">
        <ele>37.15</ele>
        <time>2013-12-02T13:41:21Z</time>
      </trkpt>
      <trkpt lat="48.84498" lon="-3.24505">
        <ele>36.67</ele>
        <time>2013-12-02T13:41:22Z</time>
      </trkpt>
      <trkpt lat="48.84499" lon="-3.24498">
        <ele>37.15</ele>
        <time>2013-12-02T13:41:23Z</time>
      </trkpt>
      <trkpt lat="48.84502" lon="-3.24491">
        <ele>36.67</ele>
        <time>2013-12-02T13:41:24Z</time>
      </trkpt>
      <trkpt lat="48.84506" lon="-3.24486">
        <ele>37.15</ele>
        <time>2013-12-02T13:41:25Z</time>
      </trkpt>
      <trkpt lat="48.8451" lon="-3.2448">
        <ele>36.67</ele>
        <time>2013-12-02T13:41:26Z</time>
      </trkpt>
      <trkpt lat="48.84573" lon="-3.2442">
        <ele>32.34</ele>
        <time>2013-12-02T13:41:37Z</time>
      </trkpt>
      <trkpt lat="48.84581" lon="-3.24412">
        <ele>31.38</ele>
        <time>2013-12-02T13:41:38Z</time>
      </trkpt>
      <trkpt lat="48.84589" lon="-3.24404">
        <ele>29.94</ele>
        <time>2013-12-02T13:41:39Z</time>
      </trkpt>
      <trkpt lat="48.84604" lon="-3.24385">
        <ele>28.02</ele>
        <time>2013-12-02T13:41:41Z</time>
      </trkpt>
      <trkpt lat="48.84627" lon="-3.24351">
        <ele>24.17</ele>
        <time>2013-12-02T13:41:44Z</time>
      </trkpt>
      <trkpt lat="48.84644" lon="-3.24326">
        <ele>22.25</ele>
        <time>2013-12-02T13:41:46Z</time>
      </trkpt>
      <trkpt lat="48.84669" lon="-3.24295">
        <ele>18.88</ele>
        <time>2013-12-02T13:41:49Z</time>
      </trkpt>
      <trkpt lat="48.84695" lon="-3.24274">
        <ele>16.48</ele>
        <time>2013-12-02T13:41:52Z</time>
      </trkpt>
      <trkpt lat="48.84727" lon="-3.24264">
        <ele>14.56</ele>
        <time>2013-12-02T13:41:56Z</time>
      </trkpt>
      <trkpt lat="48.84732" lon="-3.24258">
        <ele>15.04</ele>
        <time>2013-12-02T13:41:57Z</time>
      </trkpt>
      <trkpt lat="48.84735" lon="-3.24248">
        <ele>14.56</ele>
        <time>2013-12-02T13:41:58Z</time>
      </trkpt>
      <trkpt lat="48.84736" lon="-3.24237">
        <ele>15.52</ele>
        <time>2013-12-02T13:41:59Z</time>
      </trkpt>
      <trkpt lat="48.84736" lon="-3.24227">
        <ele>14.56</ele>
        <time>2013-12-02T13:42:00Z</time>
      </trkpt>
      <trkpt lat="48.84735" lon="-3.24217">
        <ele>15.52</ele>
        <time>2013-12-02T13:42:01Z</time>
      </trkpt>
      <trkpt lat="48.84735" lon="-3.24207">
        <ele>15.04</ele>
        <time>2013-12-02T13:42:02Z</time>
      </trkpt>
      <trkpt lat="48.84737" lon="-3.2406">
        <ele>15.52</ele>
        <time>2013-12-02T13:42:18Z</time>
      </trkpt>
      <trkpt lat="48.8471" lon="-3.23945">
        <ele>16</ele>
        <time>2013-12-02T13:42:32Z</time>
      </trkpt>
      <trkpt lat="48.84694" lon="-3.239">
        <ele>17.92</ele>
        <time>2013-12-02T13:42:39Z</time>
      </trkpt>
      <trkpt lat="48.84692" lon="-3.23894">
        <ele>17.92</ele>
        <time>2013-12-02T13:42:40Z</time>
      </trkpt>
      <trkpt lat="48.84692" lon="-3.23887">
        <ele>17.92</ele>
        <time>2013-12-02T13:42:41Z</time>
      </trkpt>
      <trkpt lat="48.84691" lon="-3.2388">
        <ele>17.92</ele>
        <time>2013-12-02T13:42:42Z</time>
      </trkpt>
      <trkpt lat="48.84691" lon="-3.23873">
        <ele>18.4</ele>
        <time>2013-12-02T13:42:43Z</time>
      </trkpt>
      <trkpt lat="48.84685" lon="-3.23801">
        <ele>22.25</ele>
        <time>2013-12-02T13:42:55Z</time>
      </trkpt>
      <trkpt lat="48.84683" lon="-3.23752">
        <ele>25.13</ele>
        <time>2013-12-02T13:43:05Z</time>
      </trkpt>
      <trkpt lat="48.84679" lon="-3.23718">
        <ele>28.5</ele>
        <time>2013-12-02T13:43:13Z</time>
      </trkpt>
      <trkpt lat="48.84674" lon="-3.23678">
        <ele>31.86</ele>
        <time>2013-12-02T13:43:23Z</time>
      </trkpt>
      <trkpt lat="48.84672" lon="-3.23674">
        <ele>32.34</ele>
        <time>2013-12-02T13:43:24Z</time>
      </trkpt>
      <trkpt lat="48.84652" lon="-3.23645">
        <ele>35.71</ele>
        <time>2013-12-02T13:43:34Z</time>
      </trkpt>
      <trkpt lat="48.84627" lon="-3.23614">
        <ele>39.07</ele>
        <time>2013-12-02T13:43:45Z</time>
      </trkpt>
      <trkpt lat="48.84616" lon="-3.23579">
        <ele>41.95</ele>
        <time>2013-12-02T13:43:54Z</time>
      </trkpt>
      <trkpt lat="48.84603" lon="-3.2353">
        <ele>45.32</ele>
        <time>2013-12-02T13:44:06Z</time>
      </trkpt>
      <trkpt lat="48.84568" lon="-3.23456">
        <ele>47.72</ele>
        <time>2013-12-02T13:44:25Z</time>
      </trkpt>
      <trkpt lat="48.84531" lon="-3.23438">
        <ele>48.2</ele>
        <time>2013-12-02T13:44:35Z</time>
      </trkpt>
      <trkpt lat="48.84519" lon="-3.23428">
        <ele>48.2</ele>
        <time>2013-12-02T13:44:38Z</time>
      </trkpt>
      <trkpt lat="48.84515" lon="-3.23424">
        <ele>48.2</ele>
        <time>2013-12-02T13:44:39Z</time>
      </trkpt>
      <trkpt lat="48.84512" lon="-3.2342">
        <ele>48.2</ele>
        <time>2013-12-02T13:44:40Z</time>
      </trkpt>
      <trkpt lat="48.84509" lon="-3.23415">
        <ele>48.2</ele>
        <time>2013-12-02T13:44:41Z</time>
      </trkpt>
      <trkpt lat="48.84506" lon="-3.23409">
        <ele>48.2</ele>
        <time>2013-12-02T13:44:42Z</time>
      </trkpt>
      <trkpt lat="48.84461" lon="-3.2332">
        <ele>49.65</ele>
        <time>2013-12-02T13:44:59Z</time>
      </trkpt>
      <trkpt lat="48.84406" lon="-3.23244">
        <ele>50.13</ele>
        <time>2013-12-02T13:45:14Z</time>
      </trkpt>
      <trkpt lat="48.8439" lon="-3.23201">
        <ele>53.01</ele>
        <time>2013-12-02T13:45:21Z</time>
      </trkpt>
      <trkpt lat="48.84377" lon="-3.23127">
        <ele>52.05</ele>
        <time>2013-12-02T13:45:32Z</time>
      </trkpt>
      <trkpt lat="48.84375" lon="-3.2312">
        <ele>52.05</ele>
        <time>2013-12-02T13:45:33Z</time>
      </trkpt>
      <trkpt lat="48.84373" lon="-3.23114">
        <ele>52.05</ele>
        <time>2013-12-02T13:45:34Z</time>
      </trkpt>
      <trkpt lat="48.8437" lon="-3.23109">
        <ele>51.57</ele>
        <time>2013-12-02T13:45:35Z</time>
      </trkpt>
      <trkpt lat="48.84367" lon="-3.23103">
        <ele>52.53</ele>
        <time>2013-12-02T13:45:36Z</time>
      </trkpt>
      <trkpt lat="48.84363" lon="-3.23098">
        <ele>52.05</ele>
        <time>2013-12-02T13:45:37Z</time>
      </trkpt>
      <trkpt lat="48.84359" lon="-3.23093">
        <ele>52.53</ele>
        <time>2013-12-02T13:45:38Z</time>
      </trkpt>
      <trkpt lat="48.84314" lon="-3.22988">
        <ele>50.13</ele>
        <time>2013-12-02T13:45:53Z</time>
      </trkpt>
      <trkpt lat="48.84274" lon="-3.2292">
        <ele>48.68</ele>
        <time>2013-12-02T13:46:03Z</time>
      </trkpt>
      <trkpt lat="48.84269" lon="-3.22916">
        <ele>48.2</ele>
        <time>2013-12-02T13:46:04Z</time>
      </trkpt>
      <trkpt lat="48.84264" lon="-3.22913">
        <ele>48.68</ele>
        <time>2013-12-02T13:46:05Z</time>
      </trkpt>
      <trkpt lat="48.84259" lon="-3.22911">
        <ele>48.2</ele>
        <time>2013-12-02T13:46:06Z</time>
      </trkpt>
      <trkpt lat="48.84253" lon="-3.22909">
        <ele>48.2</ele>
        <time>2013-12-02T13:46:07Z</time>
      </trkpt>
      <trkpt lat="48.84198" lon="-3.22899">
        <ele>49.16</ele>
        <time>2013-12-02T13:46:17Z</time>
      </trkpt>
      <trkpt lat="48.8415" lon="-3.22891">
        <ele>51.09</ele>
        <time>2013-12-02T13:46:30Z</time>
      </trkpt>
      <trkpt lat="48.84137" lon="-3.22888">
        <ele>52.05</ele>
        <time>2013-12-02T13:46:33Z</time>
      </trkpt>
      <trkpt lat="48.84133" lon="-3.22887">
        <ele>52.05</ele>
        <time>2013-12-02T13:46:34Z</time>
      </trkpt>
      <trkpt lat="48.84091" lon="-3.22876">
        <ele>53.49</ele>
        <time>2013-12-02T13:46:44Z</time>
      </trkpt>
      <trkpt lat="48.84086" lon="-3.22876">
        <ele>53.49</ele>
        <time>2013-12-02T13:46:45Z</time>
      </trkpt>
      <trkpt lat="48.84033" lon="-3.22889">
        <ele>54.45</ele>
        <time>2013-12-02T13:46:56Z</time>
      </trkpt>
      <trkpt lat="48.84017" lon="-3.22904">
        <ele>55.41</ele>
        <time>2013-12-02T13:47:00Z</time>
      </trkpt>
      <trkpt lat="48.84013" lon="-3.22909">
        <ele>54.93</ele>
        <time>2013-12-02T13:47:01Z</time>
      </trkpt>
      <trkpt lat="48.84003" lon="-3.22925">
        <ele>55.89</ele>
        <time>2013-12-02T13:47:04Z</time>
      </trkpt>
      <trkpt lat="48.84" lon="-3.22931">
        <ele>55.89</ele>
        <time>2013-12-02T13:47:05Z</time>
      </trkpt>
      <trkpt lat="48.83991" lon="-3.22957">
        <ele>55.89</ele>
        <time>2013-12-02T13:47:09Z</time>
      </trkpt>
      <trkpt lat="48.83952" lon="-3.23061">
        <ele>55.89</ele>
        <time>2013-12-02T13:47:24Z</time>
      </trkpt>
      <trkpt lat="48.83897" lon="-3.23154">
        <ele>56.37</ele>
        <time>2013-12-02T13:47:39Z</time>
      </trkpt>
      <trkpt lat="48.83826" lon="-3.23201">
        <ele>56.86</ele>
        <time>2013-12-02T13:47:53Z</time>
      </trkpt>
      <trkpt lat="48.83733" lon="-3.23262">
        <ele>56.37</ele>
        <time>2013-12-02T13:48:10Z</time>
      </trkpt>
      <trkpt lat="48.83607" lon="-3.23352">
        <ele>54.93</ele>
        <time>2013-12-02T13:48:32Z</time>
      </trkpt>
      <trkpt lat="48.835" lon="-3.23443">
        <ele>55.89</ele>
        <time>2013-12-02T13:48:51Z</time>
      </trkpt>
      <trkpt lat="48.83437" lon="-3.23468">
        <ele>57.82</ele>
        <time>2013-12-02T13:49:03Z</time>
      </trkpt>
      <trkpt lat="48.83356" lon="-3.23494">
        <ele>58.78</ele>
        <time>2013-12-02T13:49:18Z</time>
      </trkpt>
      <trkpt lat="48.83261" lon="-3.23523">
        <ele>57.34</ele>
        <time>2013-12-02T13:49:32Z</time>
      </trkpt>
      <trkpt lat="48.83147" lon="-3.23516">
        <ele>56.86</ele>
        <time>2013-12-02T13:49:49Z</time>
      </trkpt>
      <trkpt lat="48.83049" lon="-3.23517">
        <ele>55.41</ele>
        <time>2013-12-02T13:50:03Z</time>
      </trkpt>
      <trkpt lat="48.82997" lon="-3.23497">
        <ele>53.01</ele>
        <time>2013-12-02T13:50:10Z</time>
      </trkpt>
      <trkpt lat="48.82954" lon="-3.23488">
        <ele>49.65</ele>
        <time>2013-12-02T13:50:15Z</time>
      </trkpt>
      <trkpt lat="48.82945" lon="-3.23487">
        <ele>49.65</ele>
        <time>2013-12-02T13:50:16Z</time>
      </trkpt>
      <trkpt lat="48.82897" lon="-3.23481">
        <ele>46.28</ele>
        <time>2013-12-02T13:50:21Z</time>
      </trkpt>
      <trkpt lat="48.82887" lon="-3.23479">
        <ele>45.8</ele>
        <time>2013-12-02T13:50:22Z</time>
      </trkpt>
      <trkpt lat="48.82836" lon="-3.2347">
        <ele>42.92</ele>
        <time>2013-12-02T13:50:27Z</time>
      </trkpt>
      <trkpt lat="48.82794" lon="-3.23464">
        <ele>39.55</ele>
        <time>2013-12-02T13:50:31Z</time>
      </trkpt>
      <trkpt lat="48.82752" lon="-3.23459">
        <ele>37.63</ele>
        <time>2013-12-02T13:50:35Z</time>
      </trkpt>
      <trkpt lat="48.82673" lon="-3.23449">
        <ele>38.11</ele>
        <time>2013-12-02T13:50:45Z</time>
      </trkpt>
      <trkpt lat="48.82618" lon="-3.23443">
        <ele>40.99</ele>
        <time>2013-12-02T13:50:55Z</time>
      </trkpt>
      <trkpt lat="48.8256" lon="-3.23437">
        <ele>43.88</ele>
        <time>2013-12-02T13:51:06Z</time>
      </trkpt>
      <trkpt lat="48.82481" lon="-3.23426">
        <ele>47.24</ele>
        <time>2013-12-02T13:51:21Z</time>
      </trkpt>
      <trkpt lat="48.82368" lon="-3.23423">
        <ele>49.16</ele>
        <time>2013-12-02T13:51:42Z</time>
      </trkpt>
      <trkpt lat="48.82238" lon="-3.23461">
        <ele>51.57</ele>
        <time>2013-12-02T13:52:05Z</time>
      </trkpt>
      <trkpt lat="48.82134" lon="-3.23526">
        <ele>53.01</ele>
        <time>2013-12-02T13:52:25Z</time>
      </trkpt>
      <trkpt lat="48.82004" lon="-3.23616">
        <ele>52.05</ele>
        <time>2013-12-02T13:52:48Z</time>
      </trkpt>
      <trkpt lat="48.81869" lon="-3.23708">
        <ele>49.65</ele>
        <time>2013-12-02T13:53:09Z</time>
      </trkpt>
      <trkpt lat="48.81775" lon="-3.23758">
        <ele>49.16</ele>
        <time>2013-12-02T13:53:23Z</time>
      </trkpt>
      <trkpt lat="48.81678" lon="-3.23739">
        <ele>49.16</ele>
        <time>2013-12-02T13:53:38Z</time>
      </trkpt>
      <trkpt lat="48.81594" lon="-3.23763">
        <ele>51.09</ele>
        <time>2013-12-02T13:53:52Z</time>
      </trkpt>
      <trkpt lat="48.81496" lon="-3.23778">
        <ele>52.05</ele>
        <time>2013-12-02T13:54:09Z</time>
      </trkpt>
      <trkpt lat="48.81395" lon="-3.23789">
        <ele>53.97</ele>
        <time>2013-12-02T13:54:26Z</time>
      </trkpt>
      <trkpt lat="48.81277" lon="-3.23803">
        <ele>55.89</ele>
        <time>2013-12-02T13:54:46Z</time>
      </trkpt>
      <trkpt lat="48.81223" lon="-3.2379">
        <ele>55.89</ele>
        <time>2013-12-02T13:54:55Z</time>
      </trkpt>
      <trkpt lat="48.81217" lon="-3.23786">
        <ele>56.37</ele>
        <time>2013-12-02T13:54:56Z</time>
      </trkpt>
      <trkpt lat="48.81212" lon="-3.23781">
        <ele>56.86</ele>
        <time>2013-12-02T13:54:57Z</time>
      </trkpt>
      <trkpt lat="48.8114" lon="-3.23711">
        <ele>57.82</ele>
        <time>2013-12-02T13:55:12Z</time>
      </trkpt>
      <trkpt lat="48.81045" lon="-3.23657">
        <ele>59.74</ele>
        <time>2013-12-02T13:55:30Z</time>
      </trkpt>
      <trkpt lat="48.80946" lon="-3.2362">
        <ele>60.7</ele>
        <time>2013-12-02T13:55:48Z</time>
      </trkpt>
      <trkpt lat="48.80864" lon="-3.23546">
        <ele>58.78</ele>
        <time>2013-12-02T13:56:03Z</time>
      </trkpt>
      <trkpt lat="48.8079" lon="-3.23474">
        <ele>58.3</ele>
        <time>2013-12-02T13:56:16Z</time>
      </trkpt>
      <trkpt lat="48.80785" lon="-3.23469">
        <ele>58.3</ele>
        <time>2013-12-02T13:56:17Z</time>
      </trkpt>
      <trkpt lat="48.80779" lon="-3.23465">
        <ele>58.78</ele>
        <time>2013-12-02T13:56:18Z</time>
      </trkpt>
      <trkpt lat="48.80758" lon="-3.23454">
        <ele>59.74</ele>
        <time>2013-12-02T13:56:22Z</time>
      </trkpt>
      <trkpt lat="48.80752" lon="-3.23452">
        <ele>59.74</ele>
        <time>2013-12-02T13:56:23Z</time>
      </trkpt>
      <trkpt lat="48.80736" lon="-3.23451">
        <ele>60.22</ele>
        <time>2013-12-02T13:56:26Z</time>
      </trkpt>
      <trkpt lat="48.80666" lon="-3.23479">
        <ele>61.66</ele>
        <time>2013-12-02T13:56:39Z</time>
      </trkpt>
      <trkpt lat="48.80549" lon="-3.23547">
        <ele>63.1</ele>
        <time>2013-12-02T13:57:00Z</time>
      </trkpt>
      <trkpt lat="48.80416" lon="-3.23666">
        <ele>63.58</ele>
        <time>2013-12-02T13:57:23Z</time>
      </trkpt>
      <trkpt lat="48.80329" lon="-3.23743">
        <ele>64.07</ele>
        <time>2013-12-02T13:57:39Z</time>
      </trkpt>
      <trkpt lat="48.80221" lon="-3.23835">
        <ele>64.07</ele>
        <time>2013-12-02T13:57:58Z</time>
      </trkpt>
      <trkpt lat="48.80137" lon="-3.23903">
        <ele>62.14</ele>
        <time>2013-12-02T13:58:12Z</time>
      </trkpt>
      <trkpt lat="48.80059" lon="-3.23947">
        <ele>62.62</ele>
        <time>2013-12-02T13:58:25Z</time>
      </trkpt>
      <trkpt lat="48.79969" lon="-3.23935">
        <ele>64.07</ele>
        <time>2013-12-02T13:58:40Z</time>
      </trkpt>
      <trkpt lat="48.7987" lon="-3.23914">
        <ele>65.51</ele>
        <time>2013-12-02T13:58:58Z</time>
      </trkpt>
      <trkpt lat="48.79843" lon="-3.23904">
        <ele>65.51</ele>
        <time>2013-12-02T13:59:04Z</time>
      </trkpt>
      <trkpt lat="48.79765" lon="-3.2388">
        <ele>65.03</ele>
        <time>2013-12-02T13:59:20Z</time>
      </trkpt>
      <trkpt lat="48.79755" lon="-3.23878">
        <ele>65.99</ele>
        <time>2013-12-02T13:59:22Z</time>
      </trkpt>
      <trkpt lat="48.7975" lon="-3.23878">
        <ele>65.51</ele>
        <time>2013-12-02T13:59:23Z</time>
      </trkpt>
      <trkpt lat="48.79746" lon="-3.23879">
        <ele>65.03</ele>
        <time>2013-12-02T13:59:24Z</time>
      </trkpt>
      <trkpt lat="48.79741" lon="-3.23879">
        <ele>64.55</ele>
        <time>2013-12-02T13:59:25Z</time>
      </trkpt>
      <trkpt lat="48.79737" lon="-3.23878">
        <ele>64.55</ele>
        <time>2013-12-02T13:59:26Z</time>
      </trkpt>
      <trkpt lat="48.79734" lon="-3.23874">
        <ele>64.55</ele>
        <time>2013-12-02T13:59:27Z</time>
      </trkpt>
      <trkpt lat="48.79732" lon="-3.23868">
        <ele>64.07</ele>
        <time>2013-12-02T13:59:28Z</time>
      </trkpt>
      <trkpt lat="48.79729" lon="-3.23861">
        <ele>64.07</ele>
        <time>2013-12-02T13:59:29Z</time>
      </trkpt>
      <trkpt lat="48.79707" lon="-3.23747">
        <ele>61.18</ele>
        <time>2013-12-02T13:59:41Z</time>
      </trkpt>
      <trkpt lat="48.79693" lon="-3.23697">
        <ele>60.22</ele>
        <time>2013-12-02T13:59:46Z</time>
      </trkpt>
      <trkpt lat="48.79689" lon="-3.23689">
        <ele>59.74</ele>
        <time>2013-12-02T13:59:47Z</time>
      </trkpt>
      <trkpt lat="48.79683" lon="-3.23683">
        <ele>59.26</ele>
        <time>2013-12-02T13:59:48Z</time>
      </trkpt>
      <trkpt lat="48.79677" lon="-3.23679">
        <ele>58.3</ele>
        <time>2013-12-02T13:59:49Z</time>
      </trkpt>
      <trkpt lat="48.79668" lon="-3.23676">
        <ele>57.82</ele>
        <time>2013-12-02T13:59:50Z</time>
      </trkpt>
      <trkpt lat="48.79659" lon="-3.23674">
        <ele>57.34</ele>
        <time>2013-12-02T13:59:51Z</time>
      </trkpt>
      <trkpt lat="48.79651" lon="-3.23673">
        <ele>57.34</ele>
        <time>2013-12-02T13:59:52Z</time>
      </trkpt>
      <trkpt lat="48.79642" lon="-3.23673">
        <ele>57.34</ele>
        <time>2013-12-02T13:59:53Z</time>
      </trkpt>
      <trkpt lat="48.79548" lon="-3.23673">
        <ele>55.89</ele>
        <time>2013-12-02T14:00:06Z</time>
      </trkpt>
      <trkpt lat="48.79542" lon="-3.2367">
        <ele>55.41</ele>
        <time>2013-12-02T14:00:07Z</time>
      </trkpt>
      <trkpt lat="48.79536" lon="-3.23666">
        <ele>54.93</ele>
        <time>2013-12-02T14:00:08Z</time>
      </trkpt>
      <trkpt lat="48.79529" lon="-3.2366">
        <ele>54.45</ele>
        <time>2013-12-02T14:00:09Z</time>
      </trkpt>
      <trkpt lat="48.79523" lon="-3.23653">
        <ele>54.45</ele>
        <time>2013-12-02T14:00:10Z</time>
      </trkpt>
      <trkpt lat="48.79517" lon="-3.23647">
        <ele>53.49</ele>
        <time>2013-12-02T14:00:11Z</time>
      </trkpt>
      <trkpt lat="48.79485" lon="-3.23613">
        <ele>52.05</ele>
        <time>2013-12-02T14:00:16Z</time>
      </trkpt>
      <trkpt lat="48.79411" lon="-3.23572">
        <ele>48.2</ele>
        <time>2013-12-02T14:00:25Z</time>
      </trkpt>
      <trkpt lat="48.79374" lon="-3.2356">
        <ele>45.32</ele>
        <time>2013-12-02T14:00:29Z</time>
      </trkpt>
      <trkpt lat="48.79325" lon="-3.23556">
        <ele>42.44</ele>
        <time>2013-12-02T14:00:34Z</time>
      </trkpt>
      <trkpt lat="48.79315" lon="-3.23559">
        <ele>41.47</ele>
        <time>2013-12-02T14:00:35Z</time>
      </trkpt>
      <trkpt lat="48.79305" lon="-3.23563">
        <ele>41.47</ele>
        <time>2013-12-02T14:00:36Z</time>
      </trkpt>
      <trkpt lat="48.79288" lon="-3.23575">
        <ele>40.51</ele>
        <time>2013-12-02T14:00:38Z</time>
      </trkpt>
      <trkpt lat="48.79272" lon="-3.2359">
        <ele>39.55</ele>
        <time>2013-12-02T14:00:40Z</time>
      </trkpt>
      <trkpt lat="48.79264" lon="-3.23596">
        <ele>39.55</ele>
        <time>2013-12-02T14:00:41Z</time>
      </trkpt>
      <trkpt lat="48.79255" lon="-3.23601">
        <ele>39.07</ele>
        <time>2013-12-02T14:00:42Z</time>
      </trkpt>
      <trkpt lat="48.79245" lon="-3.23604">
        <ele>38.11</ele>
        <time>2013-12-02T14:00:43Z</time>
      </trkpt>
      <trkpt lat="48.79236" lon="-3.23606">
        <ele>38.11</ele>
        <time>2013-12-02T14:00:44Z</time>
      </trkpt>
      <trkpt lat="48.79227" lon="-3.23606">
        <ele>37.15</ele>
        <time>2013-12-02T14:00:45Z</time>
      </trkpt>
      <trkpt lat="48.79217" lon="-3.23606">
        <ele>37.15</ele>
        <time>2013-12-02T14:00:46Z</time>
      </trkpt>
      <trkpt lat="48.79208" lon="-3.23604">
        <ele>37.15</ele>
        <time>2013-12-02T14:00:47Z</time>
      </trkpt>
      <trkpt lat="48.79199" lon="-3.23601">
        <ele>35.71</ele>
        <time>2013-12-02T14:00:48Z</time>
      </trkpt>
      <trkpt lat="48.7919" lon="-3.23597">
        <ele>35.71</ele>
        <time>2013-12-02T14:00:49Z</time>
      </trkpt>
      <trkpt lat="48.79181" lon="-3.23593">
        <ele>35.23</ele>
        <time>2013-12-02T14:00:50Z</time>
      </trkpt>
      <trkpt lat="48.79126" lon="-3.23568">
        <ele>31.86</ele>
        <time>2013-12-02T14:00:56Z</time>
      </trkpt>
      <trkpt lat="48.79099" lon="-3.23554">
        <ele>29.94</ele>
        <time>2013-12-02T14:00:59Z</time>
      </trkpt>
      <trkpt lat="48.79036" lon="-3.23514">
        <ele>26.09</ele>
        <time>2013-12-02T14:01:06Z</time>
      </trkpt>
      <trkpt lat="48.79029" lon="-3.23504">
        <ele>25.61</ele>
        <time>2013-12-02T14:01:07Z</time>
      </trkpt>
      <trkpt lat="48.79024" lon="-3.23492">
        <ele>25.13</ele>
        <time>2013-12-02T14:01:08Z</time>
      </trkpt>
      <trkpt lat="48.79022" lon="-3.23479">
        <ele>25.13</ele>
        <time>2013-12-02T14:01:09Z</time>
      </trkpt>
      <trkpt lat="48.7902" lon="-3.23465">
        <ele>24.17</ele>
        <time>2013-12-02T14:01:10Z</time>
      </trkpt>
      <trkpt lat="48.7902" lon="-3.23451">
        <ele>24.17</ele>
        <time>2013-12-02T14:01:11Z</time>
      </trkpt>
      <trkpt lat="48.79019" lon="-3.23424">
        <ele>22.73</ele>
        <time>2013-12-02T14:01:13Z</time>
      </trkpt>
      <trkpt lat="48.79021" lon="-3.23411">
        <ele>22.73</ele>
        <time>2013-12-02T14:01:14Z</time>
      </trkpt>
      <trkpt lat="48.79036" lon="-3.23347">
        <ele>18.88</ele>
        <time>2013-12-02T14:01:19Z</time>
      </trkpt>
      <trkpt lat="48.79042" lon="-3.23321">
        <ele>17.92</ele>
        <time>2013-12-02T14:01:21Z</time>
      </trkpt>
      <trkpt lat="48.79054" lon="-3.23286">
        <ele>17.44</ele>
        <time>2013-12-02T14:01:24Z</time>
      </trkpt>
      <trkpt lat="48.79059" lon="-3.23275">
        <ele>16</ele>
        <time>2013-12-02T14:01:25Z</time>
      </trkpt>
      <trkpt lat="48.79064" lon="-3.23265">
        <ele>15.52</ele>
        <time>2013-12-02T14:01:26Z</time>
      </trkpt>
      <trkpt lat="48.79097" lon="-3.23199">
        <ele>14.08</ele>
        <time>2013-12-02T14:01:33Z</time>
      </trkpt>
      <trkpt lat="48.791" lon="-3.23189">
        <ele>14.08</ele>
        <time>2013-12-02T14:01:34Z</time>
      </trkpt>
      <trkpt lat="48.79101" lon="-3.23178">
        <ele>14.08</ele>
        <time>2013-12-02T14:01:35Z</time>
      </trkpt>
      <trkpt lat="48.79102" lon="-3.23168">
        <ele>13.6</ele>
        <time>2013-12-02T14:01:36Z</time>
      </trkpt>
      <trkpt lat="48.79103" lon="-3.23159">
        <ele>13.6</ele>
        <time>2013-12-02T14:01:37Z</time>
      </trkpt>
      <trkpt lat="48.79097" lon="-3.23035">
        <ele>11.19</ele>
        <time>2013-12-02T14:01:50Z</time>
      </trkpt>
      <trkpt lat="48.79097" lon="-3.23026">
        <ele>11.19</ele>
        <time>2013-12-02T14:01:51Z</time>
      </trkpt>
      <trkpt lat="48.79099" lon="-3.23018">
        <ele>11.19</ele>
        <time>2013-12-02T14:01:52Z</time>
      </trkpt>
      <trkpt lat="48.79101" lon="-3.2301">
        <ele>10.71</ele>
        <time>2013-12-02T14:01:53Z</time>
      </trkpt>
      <trkpt lat="48.79104" lon="-3.23001">
        <ele>10.71</ele>
        <time>2013-12-02T14:01:54Z</time>
      </trkpt>
      <trkpt lat="48.7912" lon="-3.22945">
        <ele>9.75</ele>
        <time>2013-12-02T14:02:00Z</time>
      </trkpt>
      <trkpt lat="48.79122" lon="-3.22924">
        <ele>8.79</ele>
        <time>2013-12-02T14:02:02Z</time>
      </trkpt>
      <trkpt lat="48.79123" lon="-3.22913">
        <ele>8.31</ele>
        <time>2013-12-02T14:02:03Z</time>
      </trkpt>
      <trkpt lat="48.79122" lon="-3.22903">
        <ele>8.31</ele>
        <time>2013-12-02T14:02:04Z</time>
      </trkpt>
      <trkpt lat="48.79121" lon="-3.22894">
        <ele>7.83</ele>
        <time>2013-12-02T14:02:05Z</time>
      </trkpt>
      <trkpt lat="48.79119" lon="-3.22885">
        <ele>7.83</ele>
        <time>2013-12-02T14:02:06Z</time>
      </trkpt>
      <trkpt lat="48.79115" lon="-3.22877">
        <ele>7.83</ele>
        <time>2013-12-02T14:02:07Z</time>
      </trkpt>
      <trkpt lat="48.79111" lon="-3.2287">
        <ele>8.31</ele>
        <time>2013-12-02T14:02:08Z</time>
      </trkpt>
      <trkpt lat="48.79107" lon="-3.22864">
        <ele>8.31</ele>
        <time>2013-12-02T14:02:09Z</time>
      </trkpt>
      <trkpt lat="48.79059" lon="-3.22788">
        <ele>7.35</ele>
        <time>2013-12-02T14:02:20Z</time>
      </trkpt>
      <trkpt lat="48.79054" lon="-3.22782">
        <ele>7.35</ele>
        <time>2013-12-02T14:02:21Z</time>
      </trkpt>
      <trkpt lat="48.79048" lon="-3.22776">
        <ele>6.87</ele>
        <time>2013-12-02T14:02:22Z</time>
      </trkpt>
      <trkpt lat="48.79042" lon="-3.22772">
        <ele>6.87</ele>
        <time>2013-12-02T14:02:23Z</time>
      </trkpt>
      <trkpt lat="48.79037" lon="-3.22769">
        <ele>6.87</ele>
        <time>2013-12-02T14:02:24Z</time>
      </trkpt>
      <trkpt lat="48.79031" lon="-3.22766">
        <ele>6.87</ele>
        <time>2013-12-02T14:02:25Z</time>
      </trkpt>
      <trkpt lat="48.79025" lon="-3.22761">
        <ele>6.87</ele>
        <time>2013-12-02T14:02:26Z</time>
      </trkpt>
      <trkpt lat="48.78962" lon="-3.22679">
        <ele>7.83</ele>
        <time>2013-12-02T14:02:40Z</time>
      </trkpt>
      <trkpt lat="48.78887" lon="-3.22581">
        <ele>6.39</ele>
        <time>2013-12-02T14:02:57Z</time>
      </trkpt>
      <trkpt lat="48.78883" lon="-3.22576">
        <ele>6.39</ele>
        <time>2013-12-02T14:02:58Z</time>
      </trkpt>
      <trkpt lat="48.78773" lon="-3.22464">
        <ele>6.39</ele>
        <time>2013-12-02T14:03:20Z</time>
      </trkpt>
      <trkpt lat="48.7868" lon="-3.22383">
        <ele>7.83</ele>
        <time>2013-12-02T14:03:38Z</time>
      </trkpt>
      <trkpt lat="48.78577" lon="-3.22299">
        <ele>6.87</ele>
        <time>2013-12-02T14:03:58Z</time>
      </trkpt>
      <trkpt lat="48.78506" lon="-3.22246">
        <ele>7.35</ele>
        <time>2013-12-02T14:04:12Z</time>
      </trkpt>
      <trkpt lat="48.78487" lon="-3.22238">
        <ele>7.35</ele>
        <time>2013-12-02T14:04:17Z</time>
      </trkpt>
      <trkpt lat="48.78483" lon="-3.2224">
        <ele>7.35</ele>
        <time>2013-12-02T14:04:18Z</time>
      </trkpt>
      <trkpt lat="48.78479" lon="-3.22241">
        <ele>7.83</ele>
        <time>2013-12-02T14:04:19Z</time>
      </trkpt>
      <trkpt lat="48.78475" lon="-3.22243">
        <ele>7.83</ele>
        <time>2013-12-02T14:04:20Z</time>
      </trkpt>
      <trkpt lat="48.78471" lon="-3.22244">
        <ele>7.83</ele>
        <time>2013-12-02T14:04:21Z</time>
      </trkpt>
      <trkpt lat="48.78467" lon="-3.22245">
        <ele>8.31</ele>
        <time>2013-12-02T14:04:22Z</time>
      </trkpt>
      <trkpt lat="48.78462" lon="-3.22246">
        <ele>8.31</ele>
        <time>2013-12-02T14:04:23Z</time>
      </trkpt>
      <trkpt lat="48.78459" lon="-3.22248">
        <ele>8.79</ele>
        <time>2013-12-02T14:04:24Z</time>
      </trkpt>
      <trkpt lat="48.78455" lon="-3.22251">
        <ele>9.27</ele>
        <time>2013-12-02T14:04:25Z</time>
      </trkpt>
      <trkpt lat="48.78427" lon="-3.22272">
        <ele>11.67</ele>
        <time>2013-12-02T14:04:36Z</time>
      </trkpt>
      <trkpt lat="48.78425" lon="-3.22272">
        <ele>11.19</ele>
        <time>2013-12-02T14:04:37Z</time>
      </trkpt>
      <trkpt lat="48.78423" lon="-3.2227">
        <ele>12.15</ele>
        <time>2013-12-02T14:04:38Z</time>
      </trkpt>
      <trkpt lat="48.78422" lon="-3.22267">
        <ele>12.15</ele>
        <time>2013-12-02T14:04:39Z</time>
      </trkpt>
      <trkpt lat="48.7842" lon="-3.22263">
        <ele>12.15</ele>
        <time>2013-12-02T14:04:40Z</time>
      </trkpt>
      <trkpt lat="48.78417" lon="-3.22259">
        <ele>12.15</ele>
        <time>2013-12-02T14:04:41Z</time>
      </trkpt>
      <trkpt lat="48.78413" lon="-3.22257">
        <ele>11.67</ele>
        <time>2013-12-02T14:04:42Z</time>
      </trkpt>
      <trkpt lat="48.78408" lon="-3.22255">
        <ele>11.19</ele>
        <time>2013-12-02T14:04:43Z</time>
      </trkpt>
      <trkpt lat="48.78402" lon="-3.22255">
        <ele>10.23</ele>
        <time>2013-12-02T14:04:44Z</time>
      </trkpt>
      <trkpt lat="48.78395" lon="-3.22255">
        <ele>10.23</ele>
        <time>2013-12-02T14:04:45Z</time>
      </trkpt>
      <trkpt lat="48.78388" lon="-3.22256">
        <ele>10.23</ele>
        <time>2013-12-02T14:04:46Z</time>
      </trkpt>
      <trkpt lat="48.7832" lon="-3.22281">
        <ele>11.67</ele>
        <time>2013-12-02T14:04:59Z</time>
      </trkpt>
      <trkpt lat="48.78223" lon="-3.22309">
        <ele>11.67</ele>
        <time>2013-12-02T14:05:16Z</time>
      </trkpt>
      <trkpt lat="48.78127" lon="-3.22337">
        <ele>12.15</ele>
        <time>2013-12-02T14:05:33Z</time>
      </trkpt>
      <trkpt lat="48.78032" lon="-3.22312">
        <ele>11.67</ele>
        <time>2013-12-02T14:05:48Z</time>
      </trkpt>
      <trkpt lat="48.77939" lon="-3.22292">
        <ele>14.08</ele>
        <time>2013-12-02T14:06:05Z</time>
      </trkpt>
      <trkpt lat="48.77869" lon="-3.22327">
        <ele>16.48</ele>
        <time>2013-12-02T14:06:19Z</time>
      </trkpt>
      <trkpt lat="48.7778" lon="-3.22417">
        <ele>19.36</ele>
        <time>2013-12-02T14:06:39Z</time>
      </trkpt>
      <trkpt lat="48.77704" lon="-3.22476">
        <ele>22.73</ele>
        <time>2013-12-02T14:06:56Z</time>
      </trkpt>
      <trkpt lat="48.77696" lon="-3.2248">
        <ele>22.73</ele>
        <time>2013-12-02T14:06:58Z</time>
      </trkpt>
      <trkpt lat="48.77646" lon="-3.22484">
        <ele>26.09</ele>
        <time>2013-12-02T14:07:09Z</time>
      </trkpt>
      <trkpt lat="48.77566" lon="-3.22468">
        <ele>26.09</ele>
        <time>2013-12-02T14:07:24Z</time>
      </trkpt>
      <trkpt lat="48.7752" lon="-3.22447">
        <ele>26.57</ele>
        <time>2013-12-02T14:07:33Z</time>
      </trkpt>
      <trkpt lat="48.77514" lon="-3.22446">
        <ele>26.57</ele>
        <time>2013-12-02T14:07:34Z</time>
      </trkpt>
      <trkpt lat="48.77509" lon="-3.22446">
        <ele>26.57</ele>
        <time>2013-12-02T14:07:35Z</time>
      </trkpt>
      <trkpt lat="48.77441" lon="-3.2246">
        <ele>26.57</ele>
        <time>2013-12-02T14:07:46Z</time>
      </trkpt>
      <trkpt lat="48.77436" lon="-3.22465">
        <ele>26.57</ele>
        <time>2013-12-02T14:07:47Z</time>
      </trkpt>
      <trkpt lat="48.77384" lon="-3.22558">
        <ele>25.61</ele>
        <time>2013-12-02T14:07:59Z</time>
      </trkpt>
      <trkpt lat="48.7737" lon="-3.22682">
        <ele>28.02</ele>
        <time>2013-12-02T14:08:13Z</time>
      </trkpt>
      <trkpt lat="48.77367" lon="-3.22837">
        <ele>30.42</ele>
        <time>2013-12-02T14:08:31Z</time>
      </trkpt>
      <trkpt lat="48.77357" lon="-3.22991">
        <ele>32.82</ele>
        <time>2013-12-02T14:08:49Z</time>
      </trkpt>
      <trkpt lat="48.77343" lon="-3.23045">
        <ele>34.74</ele>
        <time>2013-12-02T14:08:56Z</time>
      </trkpt>
      <trkpt lat="48.77336" lon="-3.23076">
        <ele>35.71</ele>
        <time>2013-12-02T14:09:00Z</time>
      </trkpt>
      <trkpt lat="48.77305" lon="-3.23178">
        <ele>36.67</ele>
        <time>2013-12-02T14:09:14Z</time>
      </trkpt>
      <trkpt lat="48.77275" lon="-3.23341">
        <ele>35.71</ele>
        <time>2013-12-02T14:09:32Z</time>
      </trkpt>
      <trkpt lat="48.77251" lon="-3.23456">
        <ele>37.15</ele>
        <time>2013-12-02T14:09:45Z</time>
      </trkpt>
      <trkpt lat="48.77244" lon="-3.23471">
        <ele>37.63</ele>
        <time>2013-12-02T14:09:47Z</time>
      </trkpt>
      <trkpt lat="48.77241" lon="-3.23477">
        <ele>37.63</ele>
        <time>2013-12-02T14:09:48Z</time>
      </trkpt>
      <trkpt lat="48.77202" lon="-3.23529">
        <ele>38.59</ele>
        <time>2013-12-02T14:09:57Z</time>
      </trkpt>
      <trkpt lat="48.77199" lon="-3.23536">
        <ele>39.07</ele>
        <time>2013-12-02T14:09:58Z</time>
      </trkpt>
      <trkpt lat="48.77196" lon="-3.23543">
        <ele>38.59</ele>
        <time>2013-12-02T14:09:59Z</time>
      </trkpt>
      <trkpt lat="48.77194" lon="-3.23551">
        <ele>39.07</ele>
        <time>2013-12-02T14:10:00Z</time>
      </trkpt>
      <trkpt lat="48.77193" lon="-3.23559">
        <ele>39.07</ele>
        <time>2013-12-02T14:10:01Z</time>
      </trkpt>
      <trkpt lat="48.77193" lon="-3.23568">
        <ele>39.55</ele>
        <time>2013-12-02T14:10:02Z</time>
      </trkpt>
      <trkpt lat="48.77193" lon="-3.23576">
        <ele>39.07</ele>
        <time>2013-12-02T14:10:03Z</time>
      </trkpt>
      <trkpt lat="48.77199" lon="-3.23601">
        <ele>40.03</ele>
        <time>2013-12-02T14:10:06Z</time>
      </trkpt>
      <trkpt lat="48.7726" lon="-3.23745">
        <ele>42.44</ele>
        <time>2013-12-02T14:10:25Z</time>
      </trkpt>
      <trkpt lat="48.77264" lon="-3.23751">
        <ele>41.95</ele>
        <time>2013-12-02T14:10:26Z</time>
      </trkpt>
      <trkpt lat="48.77269" lon="-3.23757">
        <ele>42.44</ele>
        <time>2013-12-02T14:10:27Z</time>
      </trkpt>
      <trkpt lat="48.77273" lon="-3.23761">
        <ele>42.44</ele>
        <time>2013-12-02T14:10:28Z</time>
      </trkpt>
      <trkpt lat="48.77279" lon="-3.23764">
        <ele>42.92</ele>
        <time>2013-12-02T14:10:29Z</time>
      </trkpt>
      <trkpt lat="48.77284" lon="-3.23767">
        <ele>42.92</ele>
        <time>2013-12-02T14:10:30Z</time>
      </trkpt>
      <trkpt lat="48.77288" lon="-3.2377">
        <ele>42.92</ele>
        <time>2013-12-02T14:10:31Z</time>
      </trkpt>
      <trkpt lat="48.77293" lon="-3.23775">
        <ele>42.92</ele>
        <time>2013-12-02T14:10:32Z</time>
      </trkpt>
      <trkpt lat="48.77296" lon="-3.23781">
        <ele>43.4</ele>
        <time>2013-12-02T14:10:33Z</time>
      </trkpt>
      <trkpt lat="48.77298" lon="-3.23788">
        <ele>43.4</ele>
        <time>2013-12-02T14:10:34Z</time>
      </trkpt>
      <trkpt lat="48.77298" lon="-3.23795">
        <ele>42.92</ele>
        <time>2013-12-02T14:10:35Z</time>
      </trkpt>
      <trkpt lat="48.77297" lon="-3.23803">
        <ele>42.92</ele>
        <time>2013-12-02T14:10:36Z</time>
      </trkpt>
      <trkpt lat="48.77295" lon="-3.23811">
        <ele>42.92</ele>
        <time>2013-12-02T14:10:37Z</time>
      </trkpt>
      <trkpt lat="48.77291" lon="-3.23818">
        <ele>42.44</ele>
        <time>2013-12-02T14:10:38Z</time>
      </trkpt>
      <trkpt lat="48.77286" lon="-3.23823">
        <ele>42.44</ele>
        <time>2013-12-02T14:10:39Z</time>
      </trkpt>
      <trkpt lat="48.77281" lon="-3.23825">
        <ele>42.44</ele>
        <time>2013-12-02T14:10:40Z</time>
      </trkpt>
      <trkpt lat="48.77275" lon="-3.23826">
        <ele>42.44</ele>
        <time>2013-12-02T14:10:41Z</time>
      </trkpt>
      <trkpt lat="48.7727" lon="-3.23826">
        <ele>41.95</ele>
        <time>2013-12-02T14:10:42Z</time>
      </trkpt>
      <trkpt lat="48.77264" lon="-3.23826">
        <ele>42.44</ele>
        <time>2013-12-02T14:10:43Z</time>
      </trkpt>
      <trkpt lat="48.77257" lon="-3.23826">
        <ele>42.44</ele>
        <time>2013-12-02T14:10:44Z</time>
      </trkpt>
      <trkpt lat="48.77251" lon="-3.23827">
        <ele>41.95</ele>
        <time>2013-12-02T14:10:45Z</time>
      </trkpt>
      <trkpt lat="48.77244" lon="-3.2383">
        <ele>41.47</ele>
        <time>2013-12-02T14:10:46Z</time>
      </trkpt>
      <trkpt lat="48.77157" lon="-3.23878">
        <ele>38.59</ele>
        <time>2013-12-02T14:10:58Z</time>
      </trkpt>
      <trkpt lat="48.77034" lon="-3.23957">
        <ele>35.71</ele>
        <time>2013-12-02T14:11:15Z</time>
      </trkpt>
      <trkpt lat="48.77027" lon="-3.23962">
        <ele>35.23</ele>
        <time>2013-12-02T14:11:16Z</time>
      </trkpt>
      <trkpt lat="48.76884" lon="-3.24094">
        <ele>32.82</ele>
        <time>2013-12-02T14:11:38Z</time>
      </trkpt>
      <trkpt lat="48.76768" lon="-3.24238">
        <ele>31.86</ele>
        <time>2013-12-02T14:11:58Z</time>
      </trkpt>
      <trkpt lat="48.7666" lon="-3.24376">
        <ele>31.38</ele>
        <time>2013-12-02T14:12:17Z</time>
      </trkpt>
      <trkpt lat="48.7655" lon="-3.24517">
        <ele>30.42</ele>
        <time>2013-12-02T14:12:37Z</time>
      </trkpt>
      <trkpt lat="48.7642" lon="-3.24684">
        <ele>28.98</ele>
        <time>2013-12-02T14:13:00Z</time>
      </trkpt>
      <trkpt lat="48.7629" lon="-3.24851">
        <ele>27.53</ele>
        <time>2013-12-02T14:13:23Z</time>
      </trkpt>
      <trkpt lat="48.7618" lon="-3.24991">
        <ele>27.05</ele>
        <time>2013-12-02T14:13:43Z</time>
      </trkpt>
      <trkpt lat="48.76053" lon="-3.25151">
        <ele>24.17</ele>
        <time>2013-12-02T14:14:05Z</time>
      </trkpt>
      <trkpt lat="48.75986" lon="-3.25243">
        <ele>21.29</ele>
        <time>2013-12-02T14:14:16Z</time>
      </trkpt>
      <trkpt lat="48.75942" lon="-3.25358">
        <ele>17.92</ele>
        <time>2013-12-02T14:14:26Z</time>
      </trkpt>
      <trkpt lat="48.75922" lon="-3.25453">
        <ele>14.56</ele>
        <time>2013-12-02T14:14:33Z</time>
      </trkpt>
      <trkpt lat="48.75886" lon="-3.25616">
        <ele>11.67</ele>
        <time>2013-12-02T14:14:45Z</time>
      </trkpt>
      <trkpt lat="48.75842" lon="-3.25771">
        <ele>12.63</ele>
        <time>2013-12-02T14:15:00Z</time>
      </trkpt>
      <trkpt lat="48.75782" lon="-3.25947">
        <ele>14.08</ele>
        <time>2013-12-02T14:15:19Z</time>
      </trkpt>
      <trkpt lat="48.75708" lon="-3.26033">
        <ele>13.6</ele>
        <time>2013-12-02T14:15:32Z</time>
      </trkpt>
      <trkpt lat="48.75614" lon="-3.26059">
        <ele>11.67</ele>
        <time>2013-12-02T14:15:45Z</time>
      </trkpt>
      <trkpt lat="48.75445" lon="-3.26087">
        <ele>9.27</ele>
        <time>2013-12-02T14:16:08Z</time>
      </trkpt>
      <trkpt lat="48.75306" lon="-3.26113">
        <ele>8.79</ele>
        <time>2013-12-02T14:16:29Z</time>
      </trkpt>
      <trkpt lat="48.75299" lon="-3.26115">
        <ele>8.79</ele>
        <time>2013-12-02T14:16:30Z</time>
      </trkpt>
      <trkpt lat="48.75293" lon="-3.2612">
        <ele>8.31</ele>
        <time>2013-12-02T14:16:31Z</time>
      </trkpt>
      <trkpt lat="48.75289" lon="-3.26126">
        <ele>8.31</ele>
        <time>2013-12-02T14:16:32Z</time>
      </trkpt>
      <trkpt lat="48.75287" lon="-3.26134">
        <ele>8.79</ele>
        <time>2013-12-02T14:16:33Z</time>
      </trkpt>
      <trkpt lat="48.75287" lon="-3.26142">
        <ele>8.79</ele>
        <time>2013-12-02T14:16:34Z</time>
      </trkpt>
      <trkpt lat="48.75286" lon="-3.26151">
        <ele>8.79</ele>
        <time>2013-12-02T14:16:35Z</time>
      </trkpt>
      <trkpt lat="48.75284" lon="-3.2616">
        <ele>8.79</ele>
        <time>2013-12-02T14:16:36Z</time>
      </trkpt>
      <trkpt lat="48.75281" lon="-3.26167">
        <ele>9.27</ele>
        <time>2013-12-02T14:16:37Z</time>
      </trkpt>
      <trkpt lat="48.75277" lon="-3.26173">
        <ele>9.27</ele>
        <time>2013-12-02T14:16:38Z</time>
      </trkpt>
      <trkpt lat="48.75271" lon="-3.26178">
        <ele>9.75</ele>
        <time>2013-12-02T14:16:39Z</time>
      </trkpt>
      <trkpt lat="48.75266" lon="-3.26181">
        <ele>9.75</ele>
        <time>2013-12-02T14:16:40Z</time>
      </trkpt>
      <trkpt lat="48.7526" lon="-3.26182">
        <ele>9.75</ele>
        <time>2013-12-02T14:16:41Z</time>
      </trkpt>
      <trkpt lat="48.75254" lon="-3.26183">
        <ele>9.75</ele>
        <time>2013-12-02T14:16:42Z</time>
      </trkpt>
      <trkpt lat="48.75247" lon="-3.26184">
        <ele>9.27</ele>
        <time>2013-12-02T14:16:43Z</time>
      </trkpt>
      <trkpt lat="48.75241" lon="-3.26187">
        <ele>9.27</ele>
        <time>2013-12-02T14:16:44Z</time>
      </trkpt>
      <trkpt lat="48.75236" lon="-3.26193">
        <ele>8.79</ele>
        <time>2013-12-02T14:16:45Z</time>
      </trkpt>
      <trkpt lat="48.75232" lon="-3.26203">
        <ele>8.31</ele>
        <time>2013-12-02T14:16:46Z</time>
      </trkpt>
      <trkpt lat="48.7523" lon="-3.26213">
        <ele>7.83</ele>
        <time>2013-12-02T14:16:47Z</time>
      </trkpt>
      <trkpt lat="48.75231" lon="-3.26225">
        <ele>7.83</ele>
        <time>2013-12-02T14:16:48Z</time>
      </trkpt>
      <trkpt lat="48.75233" lon="-3.26236">
        <ele>7.83</ele>
        <time>2013-12-02T14:16:49Z</time>
      </trkpt>
      <trkpt lat="48.75235" lon="-3.26246">
        <ele>7.35</ele>
        <time>2013-12-02T14:16:50Z</time>
      </trkpt>
      <trkpt lat="48.75276" lon="-3.26422">
        <ele>8.31</ele>
        <time>2013-12-02T14:17:08Z</time>
      </trkpt>
      <trkpt lat="48.75276" lon="-3.26432">
        <ele>8.31</ele>
        <time>2013-12-02T14:17:09Z</time>
      </trkpt>
      <trkpt lat="48.75276" lon="-3.26442">
        <ele>8.31</ele>
        <time>2013-12-02T14:17:10Z</time>
      </trkpt>
      <trkpt lat="48.75247" lon="-3.26539">
        <ele>7.83</ele>
        <time>2013-12-02T14:17:21Z</time>
      </trkpt>
      <trkpt lat="48.75176" lon="-3.26661">
        <ele>6.87</ele>
        <time>2013-12-02T14:17:37Z</time>
      </trkpt>
      <trkpt lat="48.75096" lon="-3.26719">
        <ele>7.35</ele>
        <time>2013-12-02T14:17:50Z</time>
      </trkpt>
      <trkpt lat="48.74991" lon="-3.26782">
        <ele>9.75</ele>
        <time>2013-12-02T14:18:08Z</time>
      </trkpt>
      <trkpt lat="48.74943" lon="-3.26819">
        <ele>9.27</ele>
        <time>2013-12-02T14:18:16Z</time>
      </trkpt>
      <trkpt lat="48.74937" lon="-3.26827">
        <ele>9.27</ele>
        <time>2013-12-02T14:18:17Z</time>
      </trkpt>
      <trkpt lat="48.74932" lon="-3.26834">
        <ele>9.27</ele>
        <time>2013-12-02T14:18:18Z</time>
      </trkpt>
      <trkpt lat="48.74927" lon="-3.26843">
        <ele>9.27</ele>
        <time>2013-12-02T14:18:19Z</time>
      </trkpt>
      <trkpt lat="48.74923" lon="-3.26852">
        <ele>8.79</ele>
        <time>2013-12-02T14:18:20Z</time>
      </trkpt>
      <trkpt lat="48.7492" lon="-3.26862">
        <ele>8.79</ele>
        <time>2013-12-02T14:18:21Z</time>
      </trkpt>
      <trkpt lat="48.74917" lon="-3.26873">
        <ele>8.31</ele>
        <time>2013-12-02T14:18:22Z</time>
      </trkpt>
      <trkpt lat="48.74915" lon="-3.26884">
        <ele>8.31</ele>
        <time>2013-12-02T14:18:23Z</time>
      </trkpt>
      <trkpt lat="48.74913" lon="-3.26895">
        <ele>8.31</ele>
        <time>2013-12-02T14:18:24Z</time>
      </trkpt>
      <trkpt lat="48.74902" lon="-3.27005">
        <ele>9.27</ele>
        <time>2013-12-02T14:18:35Z</time>
      </trkpt>
      <trkpt lat="48.74903" lon="-3.27013">
        <ele>9.75</ele>
        <time>2013-12-02T14:18:36Z</time>
      </trkpt>
      <trkpt lat="48.74926" lon="-3.27131">
        <ele>13.12</ele>
        <time>2013-12-02T14:18:50Z</time>
      </trkpt>
      <trkpt lat="48.74956" lon="-3.27278">
        <ele>15.04</ele>
        <time>2013-12-02T14:19:08Z</time>
      </trkpt>
      <trkpt lat="48.74972" lon="-3.27349">
        <ele>17.92</ele>
        <time>2013-12-02T14:19:18Z</time>
      </trkpt>
      <trkpt lat="48.74977" lon="-3.27362">
        <ele>18.4</ele>
        <time>2013-12-02T14:19:20Z</time>
      </trkpt>
      <trkpt lat="48.7503" lon="-3.27462">
        <ele>21.29</ele>
        <time>2013-12-02T14:19:36Z</time>
      </trkpt>
      <trkpt lat="48.75091" lon="-3.27581">
        <ele>21.77</ele>
        <time>2013-12-02T14:19:53Z</time>
      </trkpt>
      <trkpt lat="48.75174" lon="-3.27755">
        <ele>20.32</ele>
        <time>2013-12-02T14:20:14Z</time>
      </trkpt>
      <trkpt lat="48.75176" lon="-3.27764">
        <ele>20.32</ele>
        <time>2013-12-02T14:20:15Z</time>
      </trkpt>
      <trkpt lat="48.75177" lon="-3.27774">
        <ele>20.32</ele>
        <time>2013-12-02T14:20:16Z</time>
      </trkpt>
      <trkpt lat="48.75177" lon="-3.27784">
        <ele>20.32</ele>
        <time>2013-12-02T14:20:17Z</time>
      </trkpt>
      <trkpt lat="48.75177" lon="-3.27793">
        <ele>20.32</ele>
        <time>2013-12-02T14:20:18Z</time>
      </trkpt>
      <trkpt lat="48.75176" lon="-3.27803">
        <ele>20.32</ele>
        <time>2013-12-02T14:20:19Z</time>
      </trkpt>
      <trkpt lat="48.75174" lon="-3.27812">
        <ele>20.81</ele>
        <time>2013-12-02T14:20:20Z</time>
      </trkpt>
      <trkpt lat="48.75172" lon="-3.27821">
        <ele>20.81</ele>
        <time>2013-12-02T14:20:21Z</time>
      </trkpt>
      <trkpt lat="48.75136" lon="-3.27929">
        <ele>24.17</ele>
        <time>2013-12-02T14:20:36Z</time>
      </trkpt>
      <trkpt lat="48.75119" lon="-3.2798">
        <ele>26.09</ele>
        <time>2013-12-02T14:20:44Z</time>
      </trkpt>
      <trkpt lat="48.75118" lon="-3.27987">
        <ele>26.09</ele>
        <time>2013-12-02T14:20:45Z</time>
      </trkpt>
      <trkpt lat="48.75116" lon="-3.27994">
        <ele>26.09</ele>
        <time>2013-12-02T14:20:46Z</time>
      </trkpt>
      <trkpt lat="48.75114" lon="-3.28001">
        <ele>26.57</ele>
        <time>2013-12-02T14:20:47Z</time>
      </trkpt>
      <trkpt lat="48.75112" lon="-3.28007">
        <ele>26.57</ele>
        <time>2013-12-02T14:20:48Z</time>
      </trkpt>
      <trkpt lat="48.75093" lon="-3.28062">
        <ele>29.94</ele>
        <time>2013-12-02T14:20:57Z</time>
      </trkpt>
      <trkpt lat="48.75075" lon="-3.28107">
        <ele>32.34</ele>
        <time>2013-12-02T14:21:05Z</time>
      </trkpt>
      <trkpt lat="48.75072" lon="-3.28112">
        <ele>32.82</ele>
        <time>2013-12-02T14:21:06Z</time>
      </trkpt>
      <trkpt lat="48.75069" lon="-3.28117">
        <ele>33.3</ele>
        <time>2013-12-02T14:21:07Z</time>
      </trkpt>
      <trkpt lat="48.75021" lon="-3.28166">
        <ele>34.74</ele>
        <time>2013-12-02T14:21:19Z</time>
      </trkpt>
      <trkpt lat="48.7499" lon="-3.28235">
        <ele>36.19</ele>
        <time>2013-12-02T14:21:30Z</time>
      </trkpt>
      <trkpt lat="48.74985" lon="-3.28248">
        <ele>36.19</ele>
        <time>2013-12-02T14:21:32Z</time>
      </trkpt>
      <trkpt lat="48.74949" lon="-3.28365">
        <ele>36.67</ele>
        <time>2013-12-02T14:21:47Z</time>
      </trkpt>
      <trkpt lat="48.74904" lon="-3.28528">
        <ele>37.15</ele>
        <time>2013-12-02T14:22:06Z</time>
      </trkpt>
      <trkpt lat="48.74875" lon="-3.28694">
        <ele>36.67</ele>
        <time>2013-12-02T14:22:23Z</time>
      </trkpt>
      <trkpt lat="48.74852" lon="-3.28782">
        <ele>35.23</ele>
        <time>2013-12-02T14:22:31Z</time>
      </trkpt>
      <trkpt lat="48.74841" lon="-3.28834">
        <ele>32.34</ele>
        <time>2013-12-02T14:22:35Z</time>
      </trkpt>
      <trkpt lat="48.74837" lon="-3.28875">
        <ele>31.38</ele>
        <time>2013-12-02T14:22:38Z</time>
      </trkpt>
      <trkpt lat="48.74838" lon="-3.28889">
        <ele>31.38</ele>
        <time>2013-12-02T14:22:39Z</time>
      </trkpt>
      <trkpt lat="48.74839" lon="-3.28902">
        <ele>31.38</ele>
        <time>2013-12-02T14:22:40Z</time>
      </trkpt>
      <trkpt lat="48.74842" lon="-3.28914">
        <ele>31.38</ele>
        <time>2013-12-02T14:22:41Z</time>
      </trkpt>
      <trkpt lat="48.74845" lon="-3.28926">
        <ele>30.9</ele>
        <time>2013-12-02T14:22:42Z</time>
      </trkpt>
      <trkpt lat="48.74848" lon="-3.28937">
        <ele>30.9</ele>
        <time>2013-12-02T14:22:43Z</time>
      </trkpt>
      <trkpt lat="48.74873" lon="-3.2906">
        <ele>33.3</ele>
        <time>2013-12-02T14:22:56Z</time>
      </trkpt>
      <trkpt lat="48.74885" lon="-3.29156">
        <ele>36.19</ele>
        <time>2013-12-02T14:23:09Z</time>
      </trkpt>
      <trkpt lat="48.74886" lon="-3.29188">
        <ele>36.67</ele>
        <time>2013-12-02T14:23:13Z</time>
      </trkpt>
      <trkpt lat="48.74884" lon="-3.29211">
        <ele>36.67</ele>
        <time>2013-12-02T14:23:16Z</time>
      </trkpt>
      <trkpt lat="48.74883" lon="-3.29218">
        <ele>37.15</ele>
        <time>2013-12-02T14:23:17Z</time>
      </trkpt>
      <trkpt lat="48.7488" lon="-3.29231">
        <ele>37.63</ele>
        <time>2013-12-02T14:23:19Z</time>
      </trkpt>
      <trkpt lat="48.74852" lon="-3.29349">
        <ele>40.51</ele>
        <time>2013-12-02T14:23:36Z</time>
      </trkpt>
      <trkpt lat="48.74837" lon="-3.29471">
        <ele>42.44</ele>
        <time>2013-12-02T14:23:53Z</time>
      </trkpt>
      <trkpt lat="48.74818" lon="-3.29621">
        <ele>44.36</ele>
        <time>2013-12-02T14:24:13Z</time>
      </trkpt>
      <trkpt lat="48.74797" lon="-3.29755">
        <ele>46.76</ele>
        <time>2013-12-02T14:24:31Z</time>
      </trkpt>
      <trkpt lat="48.74797" lon="-3.29772">
        <ele>46.28</ele>
        <time>2013-12-02T14:24:33Z</time>
      </trkpt>
      <trkpt lat="48.74812" lon="-3.29924">
        <ele>46.28</ele>
        <time>2013-12-02T14:24:50Z</time>
      </trkpt>
      <trkpt lat="48.74824" lon="-3.30063">
        <ele>44.84</ele>
        <time>2013-12-02T14:25:03Z</time>
      </trkpt>
      <trkpt lat="48.74814" lon="-3.30228">
        <ele>42.44</ele>
        <time>2013-12-02T14:25:18Z</time>
      </trkpt>
      <trkpt lat="48.74811" lon="-3.30366">
        <ele>39.07</ele>
        <time>2013-12-02T14:25:29Z</time>
      </trkpt>
      <trkpt lat="48.74814" lon="-3.30461">
        <ele>36.19</ele>
        <time>2013-12-02T14:25:36Z</time>
      </trkpt>
      <trkpt lat="48.74819" lon="-3.30561">
        <ele>32.82</ele>
        <time>2013-12-02T14:25:43Z</time>
      </trkpt>
      <trkpt lat="48.7482" lon="-3.3068">
        <ele>29.46</ele>
        <time>2013-12-02T14:25:52Z</time>
      </trkpt>
      <trkpt lat="48.74802" lon="-3.30858">
        <ele>27.53</ele>
        <time>2013-12-02T14:26:06Z</time>
      </trkpt>
      <trkpt lat="48.74798" lon="-3.30976">
        <ele>28.98</ele>
        <time>2013-12-02T14:26:17Z</time>
      </trkpt>
      <trkpt lat="48.74814" lon="-3.31073">
        <ele>31.38</ele>
        <time>2013-12-02T14:26:31Z</time>
      </trkpt>
      <trkpt lat="48.74815" lon="-3.31079">
        <ele>31.38</ele>
        <time>2013-12-02T14:26:32Z</time>
      </trkpt>
      <trkpt lat="48.74828" lon="-3.31178">
        <ele>33.78</ele>
        <time>2013-12-02T14:26:46Z</time>
      </trkpt>
      <trkpt lat="48.74832" lon="-3.31215">
        <ele>34.74</ele>
        <time>2013-12-02T14:26:51Z</time>
      </trkpt>
      <trkpt lat="48.74834" lon="-3.3129">
        <ele>36.67</ele>
        <time>2013-12-02T14:27:01Z</time>
      </trkpt>
      <trkpt lat="48.74833" lon="-3.31298">
        <ele>37.15</ele>
        <time>2013-12-02T14:27:02Z</time>
      </trkpt>
      <trkpt lat="48.74827" lon="-3.3138">
        <ele>39.55</ele>
        <time>2013-12-02T14:27:13Z</time>
      </trkpt>
      <trkpt lat="48.74812" lon="-3.31506">
        <ele>39.55</ele>
        <time>2013-12-02T14:27:28Z</time>
      </trkpt>
      <trkpt lat="48.7479" lon="-3.31689">
        <ele>38.59</ele>
        <time>2013-12-02T14:27:46Z</time>
      </trkpt>
      <trkpt lat="48.74759" lon="-3.31863">
        <ele>37.63</ele>
        <time>2013-12-02T14:28:02Z</time>
      </trkpt>
      <trkpt lat="48.7473" lon="-3.3202">
        <ele>39.07</ele>
        <time>2013-12-02T14:28:17Z</time>
      </trkpt>
      <trkpt lat="48.74717" lon="-3.32161">
        <ele>40.99</ele>
        <time>2013-12-02T14:28:31Z</time>
      </trkpt>
      <trkpt lat="48.74683" lon="-3.32347">
        <ele>42.44</ele>
        <time>2013-12-02T14:28:50Z</time>
      </trkpt>
      <trkpt lat="48.74643" lon="-3.32511">
        <ele>44.36</ele>
        <time>2013-12-02T14:29:08Z</time>
      </trkpt>
      <trkpt lat="48.74622" lon="-3.32667">
        <ele>44.36</ele>
        <time>2013-12-02T14:29:24Z</time>
      </trkpt>
      <trkpt lat="48.74637" lon="-3.32863">
        <ele>43.4</ele>
        <time>2013-12-02T14:29:42Z</time>
      </trkpt>
      <trkpt lat="48.74647" lon="-3.33047">
        <ele>40.51</ele>
        <time>2013-12-02T14:29:57Z</time>
      </trkpt>
      <trkpt lat="48.74663" lon="-3.3322">
        <ele>38.11</ele>
        <time>2013-12-02T14:30:12Z</time>
      </trkpt>
      <trkpt lat="48.74698" lon="-3.3344">
        <ele>36.67</ele>
        <time>2013-12-02T14:30:31Z</time>
      </trkpt>
      <trkpt lat="48.74709" lon="-3.33573">
        <ele>33.3</ele>
        <time>2013-12-02T14:30:42Z</time>
      </trkpt>
      <trkpt lat="48.74707" lon="-3.33652">
        <ele>29.94</ele>
        <time>2013-12-02T14:30:48Z</time>
      </trkpt>
      <trkpt lat="48.74708" lon="-3.33705">
        <ele>28.5</ele>
        <time>2013-12-02T14:30:52Z</time>
      </trkpt>
      <trkpt lat="48.7471" lon="-3.33718">
        <ele>28.02</ele>
        <time>2013-12-02T14:30:53Z</time>
      </trkpt>
      <trkpt lat="48.74723" lon="-3.33784">
        <ele>28.02</ele>
        <time>2013-12-02T14:30:59Z</time>
      </trkpt>
      <trkpt lat="48.74723" lon="-3.33795">
        <ele>28.02</ele>
        <time>2013-12-02T14:31:00Z</time>
      </trkpt>
      <trkpt lat="48.74723" lon="-3.33806">
        <ele>28.02</ele>
        <time>2013-12-02T14:31:01Z</time>
      </trkpt>
      <trkpt lat="48.74722" lon="-3.33816">
        <ele>28.02</ele>
        <time>2013-12-02T14:31:02Z</time>
      </trkpt>
      <trkpt lat="48.7472" lon="-3.33827">
        <ele>28.02</ele>
        <time>2013-12-02T14:31:03Z</time>
      </trkpt>
      <trkpt lat="48.74718" lon="-3.33837">
        <ele>28.02</ele>
        <time>2013-12-02T14:31:04Z</time>
      </trkpt>
      <trkpt lat="48.74707" lon="-3.33887">
        <ele>29.94</ele>
        <time>2013-12-02T14:31:10Z</time>
      </trkpt>
      <trkpt lat="48.74681" lon="-3.33952">
        <ele>31.86</ele>
        <time>2013-12-02T14:31:20Z</time>
      </trkpt>
      <trkpt lat="48.74654" lon="-3.34049">
        <ele>33.78</ele>
        <time>2013-12-02T14:31:33Z</time>
      </trkpt>
      <trkpt lat="48.7464" lon="-3.3412">
        <ele>35.71</ele>
        <time>2013-12-02T14:31:42Z</time>
      </trkpt>
      <trkpt lat="48.74631" lon="-3.34138">
        <ele>36.19</ele>
        <time>2013-12-02T14:31:45Z</time>
      </trkpt>
      <trkpt lat="48.74625" lon="-3.34148">
        <ele>36.67</ele>
        <time>2013-12-02T14:31:47Z</time>
      </trkpt>
      <trkpt lat="48.74568" lon="-3.34211">
        <ele>38.59</ele>
        <time>2013-12-02T14:32:01Z</time>
      </trkpt>
      <trkpt lat="48.74561" lon="-3.34223">
        <ele>39.07</ele>
        <time>2013-12-02T14:32:03Z</time>
      </trkpt>
      <trkpt lat="48.74497" lon="-3.34362">
        <ele>40.99</ele>
        <time>2013-12-02T14:32:24Z</time>
      </trkpt>
      <trkpt lat="48.74476" lon="-3.34411">
        <ele>42.92</ele>
        <time>2013-12-02T14:32:32Z</time>
      </trkpt>
      <trkpt lat="48.74444" lon="-3.345">
        <ele>44.36</ele>
        <time>2013-12-02T14:32:45Z</time>
      </trkpt>
      <trkpt lat="48.74441" lon="-3.34507">
        <ele>44.36</ele>
        <time>2013-12-02T14:32:46Z</time>
      </trkpt>
      <trkpt lat="48.74381" lon="-3.34609">
        <ele>44.84</ele>
        <time>2013-12-02T14:33:02Z</time>
      </trkpt>
      <trkpt lat="48.74324" lon="-3.34699">
        <ele>43.88</ele>
        <time>2013-12-02T14:33:15Z</time>
      </trkpt>
      <trkpt lat="48.7424" lon="-3.34776">
        <ele>40.99</ele>
        <time>2013-12-02T14:33:30Z</time>
      </trkpt>
      <trkpt lat="48.74174" lon="-3.34897">
        <ele>39.55</ele>
        <time>2013-12-02T14:33:44Z</time>
      </trkpt>
      <trkpt lat="48.74138" lon="-3.34985">
        <ele>39.07</ele>
        <time>2013-12-02T14:33:53Z</time>
      </trkpt>
      <trkpt lat="48.74093" lon="-3.35101">
        <ele>40.51</ele>
        <time>2013-12-02T14:34:06Z</time>
      </trkpt>
      <trkpt lat="48.74039" lon="-3.35257">
        <ele>40.99</ele>
        <time>2013-12-02T14:34:23Z</time>
      </trkpt>
      <trkpt lat="48.73989" lon="-3.3541">
        <ele>40.99</ele>
        <time>2013-12-02T14:34:41Z</time>
      </trkpt>
      <trkpt lat="48.73935" lon="-3.35618">
        <ele>41.47</ele>
        <time>2013-12-02T14:35:03Z</time>
      </trkpt>
      <trkpt lat="48.73882" lon="-3.35816">
        <ele>40.51</ele>
        <time>2013-12-02T14:35:24Z</time>
      </trkpt>
      <trkpt lat="48.73832" lon="-3.35964">
        <ele>42.44</ele>
        <time>2013-12-02T14:35:42Z</time>
      </trkpt>
      <trkpt lat="48.73796" lon="-3.36078">
        <ele>42.92</ele>
        <time>2013-12-02T14:35:56Z</time>
      </trkpt>
      <trkpt lat="48.73744" lon="-3.36225">
        <ele>43.88</ele>
        <time>2013-12-02T14:36:15Z</time>
      </trkpt>
      <trkpt lat="48.73726" lon="-3.36361">
        <ele>45.32</ele>
        <time>2013-12-02T14:36:31Z</time>
      </trkpt>
      <trkpt lat="48.73735" lon="-3.36476">
        <ele>46.76</ele>
        <time>2013-12-02T14:36:44Z</time>
      </trkpt>
      <trkpt lat="48.73713" lon="-3.36598">
        <ele>47.24</ele>
        <time>2013-12-02T14:36:58Z</time>
      </trkpt>
      <trkpt lat="48.73706" lon="-3.36723">
        <ele>48.2</ele>
        <time>2013-12-02T14:37:11Z</time>
      </trkpt>
      <trkpt lat="48.73688" lon="-3.36861">
        <ele>47.72</ele>
        <time>2013-12-02T14:37:25Z</time>
      </trkpt>
      <trkpt lat="48.73655" lon="-3.36994">
        <ele>50.61</ele>
        <time>2013-12-02T14:37:41Z</time>
      </trkpt>
      <trkpt lat="48.73629" lon="-3.37108">
        <ele>52.53</ele>
        <time>2013-12-02T14:37:55Z</time>
      </trkpt>
      <trkpt lat="48.7361" lon="-3.3721">
        <ele>54.93</ele>
        <time>2013-12-02T14:38:07Z</time>
      </trkpt>
      <trkpt lat="48.73599" lon="-3.37324">
        <ele>58.78</ele>
        <time>2013-12-02T14:38:21Z</time>
      </trkpt>
      <trkpt lat="48.73595" lon="-3.3738">
        <ele>60.7</ele>
        <time>2013-12-02T14:38:28Z</time>
      </trkpt>
      <trkpt lat="48.73594" lon="-3.37461">
        <ele>62.62</ele>
        <time>2013-12-02T14:38:40Z</time>
      </trkpt>
      <trkpt lat="48.73597" lon="-3.37464">
        <ele>62.62</ele>
        <time>2013-12-02T14:38:41Z</time>
      </trkpt>
      <trkpt lat="48.73601" lon="-3.37466">
        <ele>62.62</ele>
        <time>2013-12-02T14:38:42Z</time>
      </trkpt>
      <trkpt lat="48.73605" lon="-3.37467">
        <ele>62.62</ele>
        <time>2013-12-02T14:38:43Z</time>
      </trkpt>
      <trkpt lat="48.7361" lon="-3.37467">
        <ele>62.14</ele>
        <time>2013-12-02T14:38:44Z</time>
      </trkpt>
      <trkpt lat="48.73615" lon="-3.37467">
        <ele>63.1</ele>
        <time>2013-12-02T14:38:45Z</time>
      </trkpt>
      <trkpt lat="48.73694" lon="-3.3749">
        <ele>63.58</ele>
        <time>2013-12-02T14:39:01Z</time>
      </trkpt>
      <trkpt lat="48.73797" lon="-3.37555">
        <ele>61.66</ele>
        <time>2013-12-02T14:39:21Z</time>
      </trkpt>
      <trkpt lat="48.73861" lon="-3.3756">
        <ele>58.3</ele>
        <time>2013-12-02T14:39:29Z</time>
      </trkpt>
      <trkpt lat="48.73907" lon="-3.37552">
        <ele>54.93</ele>
        <time>2013-12-02T14:39:34Z</time>
      </trkpt>
      <trkpt lat="48.73936" lon="-3.37543">
        <ele>53.01</ele>
        <time>2013-12-02T14:39:37Z</time>
      </trkpt>
      <trkpt lat="48.73954" lon="-3.37533">
        <ele>52.05</ele>
        <time>2013-12-02T14:39:39Z</time>
      </trkpt>
      <trkpt lat="48.7397" lon="-3.37521">
        <ele>51.57</ele>
        <time>2013-12-02T14:39:41Z</time>
      </trkpt>
      <trkpt lat="48.73976" lon="-3.37512">
        <ele>51.09</ele>
        <time>2013-12-02T14:39:42Z</time>
      </trkpt>
      <trkpt lat="48.73982" lon="-3.37503">
        <ele>51.09</ele>
        <time>2013-12-02T14:39:43Z</time>
      </trkpt>
      <trkpt lat="48.73986" lon="-3.37493">
        <ele>51.09</ele>
        <time>2013-12-02T14:39:44Z</time>
      </trkpt>
      <trkpt lat="48.73989" lon="-3.37483">
        <ele>51.57</ele>
        <time>2013-12-02T14:39:45Z</time>
      </trkpt>
      <trkpt lat="48.73992" lon="-3.37473">
        <ele>51.57</ele>
        <time>2013-12-02T14:39:46Z</time>
      </trkpt>
      <trkpt lat="48.73993" lon="-3.37464">
        <ele>52.53</ele>
        <time>2013-12-02T14:39:47Z</time>
      </trkpt>
      <trkpt lat="48.73995" lon="-3.37456">
        <ele>52.53</ele>
        <time>2013-12-02T14:39:48Z</time>
      </trkpt>
      <trkpt lat="48.74001" lon="-3.37426">
        <ele>53.97</ele>
        <time>2013-12-02T14:39:52Z</time>
      </trkpt>
      <trkpt lat="48.74004" lon="-3.37419">
        <ele>54.45</ele>
        <time>2013-12-02T14:39:53Z</time>
      </trkpt>
      <trkpt lat="48.7402" lon="-3.37382">
        <ele>56.37</ele>
        <time>2013-12-02T14:39:59Z</time>
      </trkpt>
      <trkpt lat="48.74031" lon="-3.37367">
        <ele>57.34</ele>
        <time>2013-12-02T14:40:02Z</time>
      </trkpt>
      <trkpt lat="48.74035" lon="-3.37364">
        <ele>57.34</ele>
        <time>2013-12-02T14:40:03Z</time>
      </trkpt>
      <trkpt lat="48.74044" lon="-3.37358">
        <ele>57.82</ele>
        <time>2013-12-02T14:40:05Z</time>
      </trkpt>
      <trkpt lat="48.74048" lon="-3.37356">
        <ele>58.3</ele>
        <time>2013-12-02T14:40:06Z</time>
      </trkpt>
      <trkpt lat="48.74058" lon="-3.37353">
        <ele>59.74</ele>
        <time>2013-12-02T14:40:08Z</time>
      </trkpt>
      <trkpt lat="48.74139" lon="-3.37344">
        <ele>62.14</ele>
        <time>2013-12-02T14:40:24Z</time>
      </trkpt>
      <trkpt lat="48.7423" lon="-3.37352">
        <ele>62.62</ele>
        <time>2013-12-02T14:40:40Z</time>
      </trkpt>
      <trkpt lat="48.74316" lon="-3.37362">
        <ele>64.55</ele>
        <time>2013-12-02T14:40:56Z</time>
      </trkpt>
      <trkpt lat="48.74391" lon="-3.37371">
        <ele>67.91</ele>
        <time>2013-12-02T14:41:11Z</time>
      </trkpt>
      <trkpt lat="48.744" lon="-3.37372">
        <ele>67.91</ele>
        <time>2013-12-02T14:41:13Z</time>
      </trkpt>
      <trkpt lat="48.74409" lon="-3.37372">
        <ele>68.39</ele>
        <time>2013-12-02T14:41:15Z</time>
      </trkpt>
      <trkpt lat="48.74473" lon="-3.37379">
        <ele>70.31</ele>
        <time>2013-12-02T14:41:31Z</time>
      </trkpt>
      <trkpt lat="48.74522" lon="-3.37383">
        <ele>71.76</ele>
        <time>2013-12-02T14:41:43Z</time>
      </trkpt>
      <trkpt lat="48.74526" lon="-3.37382">
        <ele>71.76</ele>
        <time>2013-12-02T14:41:44Z</time>
      </trkpt>
      <trkpt lat="48.74558" lon="-3.37387">
        <ele>72.24</ele>
        <time>2013-12-02T14:41:57Z</time>
      </trkpt>
      <trkpt lat="48.74558" lon="-3.37386">
        <ele>71.76</ele>
        <time>2013-12-02T14:42:14Z</time>
      </trkpt>
      <trkpt lat="48.74559" lon="-3.37387">
        <ele>72.24</ele>
        <time>2013-12-02T14:42:15Z</time>
      </trkpt>
      <trkpt lat="48.7456" lon="-3.37389">
        <ele>72.24</ele>
        <time>2013-12-02T14:42:16Z</time>
      </trkpt>
      <trkpt lat="48.74561" lon="-3.37391">
        <ele>72.24</ele>
        <time>2013-12-02T14:42:17Z</time>
      </trkpt>
      <trkpt lat="48.74562" lon="-3.37395">
        <ele>72.72</ele>
        <time>2013-12-02T14:42:18Z</time>
      </trkpt>
      <trkpt lat="48.74562" lon="-3.374">
        <ele>72.24</ele>
        <time>2013-12-02T14:42:19Z</time>
      </trkpt>
      <trkpt lat="48.74562" lon="-3.37406">
        <ele>72.24</ele>
        <time>2013-12-02T14:42:20Z</time>
      </trkpt>
      <trkpt lat="48.74562" lon="-3.37412">
        <ele>72.24</ele>
        <time>2013-12-02T14:42:21Z</time>
      </trkpt>
      <trkpt lat="48.74546" lon="-3.3754">
        <ele>71.27</ele>
        <time>2013-12-02T14:42:36Z</time>
      </trkpt>
      <trkpt lat="48.7452" lon="-3.37752">
        <ele>69.83</ele>
        <time>2013-12-02T14:42:56Z</time>
      </trkpt>
      <trkpt lat="48.74497" lon="-3.3794">
        <ele>68.87</ele>
        <time>2013-12-02T14:43:13Z</time>
      </trkpt>
      <trkpt lat="48.74477" lon="-3.38116">
        <ele>67.91</ele>
        <time>2013-12-02T14:43:28Z</time>
      </trkpt>
      <trkpt lat="48.74462" lon="-3.38243">
        <ele>64.07</ele>
        <time>2013-12-02T14:43:38Z</time>
      </trkpt>
      <trkpt lat="48.74448" lon="-3.38383">
        <ele>61.18</ele>
        <time>2013-12-02T14:43:48Z</time>
      </trkpt>
      <trkpt lat="48.74432" lon="-3.38602">
        <ele>60.7</ele>
        <time>2013-12-02T14:44:05Z</time>
      </trkpt>
      <trkpt lat="48.74417" lon="-3.38817">
        <ele>63.58</ele>
        <time>2013-12-02T14:44:26Z</time>
      </trkpt>
      <trkpt lat="48.74405" lon="-3.38948">
        <ele>65.03</ele>
        <time>2013-12-02T14:44:40Z</time>
      </trkpt>
      <trkpt lat="48.74395" lon="-3.39087">
        <ele>66.95</ele>
        <time>2013-12-02T14:44:55Z</time>
      </trkpt>
      <trkpt lat="48.74384" lon="-3.39289">
        <ele>67.43</ele>
        <time>2013-12-02T14:45:15Z</time>
      </trkpt>
      <trkpt lat="48.74384" lon="-3.39493">
        <ele>66.95</ele>
        <time>2013-12-02T14:45:34Z</time>
      </trkpt>
      <trkpt lat="48.74385" lon="-3.39703">
        <ele>63.58</ele>
        <time>2013-12-02T14:45:52Z</time>
      </trkpt>
      <trkpt lat="48.74374" lon="-3.39961">
        <ele>60.7</ele>
        <time>2013-12-02T14:46:13Z</time>
      </trkpt>
      <trkpt lat="48.74356" lon="-3.40195">
        <ele>59.26</ele>
        <time>2013-12-02T14:46:33Z</time>
      </trkpt>
      <trkpt lat="48.74344" lon="-3.40348">
        <ele>60.22</ele>
        <time>2013-12-02T14:46:49Z</time>
      </trkpt>
      <trkpt lat="48.74334" lon="-3.40466">
        <ele>62.62</ele>
        <time>2013-12-02T14:47:02Z</time>
      </trkpt>
      <trkpt lat="48.74323" lon="-3.40618">
        <ele>63.58</ele>
        <time>2013-12-02T14:47:19Z</time>
      </trkpt>
      <trkpt lat="48.74312" lon="-3.40804">
        <ele>64.55</ele>
        <time>2013-12-02T14:47:38Z</time>
      </trkpt>
      <trkpt lat="48.74299" lon="-3.4105">
        <ele>61.18</ele>
        <time>2013-12-02T14:48:01Z</time>
      </trkpt>
      <trkpt lat="48.74291" lon="-3.41191">
        <ele>58.3</ele>
        <time>2013-12-02T14:48:12Z</time>
      </trkpt>
      <trkpt lat="48.7428" lon="-3.41331">
        <ele>54.93</ele>
        <time>2013-12-02T14:48:22Z</time>
      </trkpt>
      <trkpt lat="48.74252" lon="-3.41508">
        <ele>51.57</ele>
        <time>2013-12-02T14:48:35Z</time>
      </trkpt>
      <trkpt lat="48.74208" lon="-3.41702">
        <ele>49.65</ele>
        <time>2013-12-02T14:48:51Z</time>
      </trkpt>
      <trkpt lat="48.74171" lon="-3.41865">
        <ele>48.2</ele>
        <time>2013-12-02T14:49:05Z</time>
      </trkpt>
      <trkpt lat="48.74128" lon="-3.42052">
        <ele>46.76</ele>
        <time>2013-12-02T14:49:21Z</time>
      </trkpt>
      <trkpt lat="48.74094" lon="-3.42225">
        <ele>47.72</ele>
        <time>2013-12-02T14:49:37Z</time>
      </trkpt>
      <trkpt lat="48.74092" lon="-3.42375">
        <ele>47.72</ele>
        <time>2013-12-02T14:49:52Z</time>
      </trkpt>
      <trkpt lat="48.74097" lon="-3.42517">
        <ele>46.76</ele>
        <time>2013-12-02T14:50:06Z</time>
      </trkpt>
      <trkpt lat="48.74076" lon="-3.42698">
        <ele>43.88</ele>
        <time>2013-12-02T14:50:22Z</time>
      </trkpt>
      <trkpt lat="48.74026" lon="-3.42815">
        <ele>42.92</ele>
        <time>2013-12-02T14:50:34Z</time>
      </trkpt>
      <trkpt lat="48.74013" lon="-3.42839">
        <ele>41.47</ele>
        <time>2013-12-02T14:50:37Z</time>
      </trkpt>
      <trkpt lat="48.7394" lon="-3.42962">
        <ele>39.07</ele>
        <time>2013-12-02T14:50:52Z</time>
      </trkpt>
      <trkpt lat="48.73911" lon="-3.4301">
        <ele>35.71</ele>
        <time>2013-12-02T14:50:57Z</time>
      </trkpt>
      <trkpt lat="48.73905" lon="-3.43022">
        <ele>35.71</ele>
        <time>2013-12-02T14:50:58Z</time>
      </trkpt>
      <trkpt lat="48.73867" lon="-3.43095">
        <ele>31.38</ele>
        <time>2013-12-02T14:51:04Z</time>
      </trkpt>
      <trkpt lat="48.73825" lon="-3.43176">
        <ele>29.46</ele>
        <time>2013-12-02T14:51:12Z</time>
      </trkpt>
      <trkpt lat="48.73766" lon="-3.43286">
        <ele>31.38</ele>
        <time>2013-12-02T14:51:26Z</time>
      </trkpt>
      <trkpt lat="48.7371" lon="-3.43387">
        <ele>34.74</ele>
        <time>2013-12-02T14:51:40Z</time>
      </trkpt>
      <trkpt lat="48.73662" lon="-3.43473">
        <ele>37.63</ele>
        <time>2013-12-02T14:51:53Z</time>
      </trkpt>
      <trkpt lat="48.73628" lon="-3.43529">
        <ele>40.51</ele>
        <time>2013-12-02T14:52:02Z</time>
      </trkpt>
      <trkpt lat="48.73597" lon="-3.43583">
        <ele>42.92</ele>
        <time>2013-12-02T14:52:11Z</time>
      </trkpt>
      <trkpt lat="48.73593" lon="-3.43588">
        <ele>43.4</ele>
        <time>2013-12-02T14:52:12Z</time>
      </trkpt>
      <trkpt lat="48.73555" lon="-3.4365">
        <ele>44.36</ele>
        <time>2013-12-02T14:52:24Z</time>
      </trkpt>
      <trkpt lat="48.73553" lon="-3.43655">
        <ele>44.84</ele>
        <time>2013-12-02T14:52:25Z</time>
      </trkpt>
      <trkpt lat="48.73551" lon="-3.4366">
        <ele>44.36</ele>
        <time>2013-12-02T14:52:26Z</time>
      </trkpt>
      <trkpt lat="48.7355" lon="-3.43664">
        <ele>44.36</ele>
        <time>2013-12-02T14:52:27Z</time>
      </trkpt>
      <trkpt lat="48.7355" lon="-3.43668">
        <ele>44.36</ele>
        <time>2013-12-02T14:52:28Z</time>
      </trkpt>
      <trkpt lat="48.7355" lon="-3.43672">
        <ele>44.36</ele>
        <time>2013-12-02T14:52:29Z</time>
      </trkpt>
      <trkpt lat="48.7355" lon="-3.43678">
        <ele>44.36</ele>
        <time>2013-12-02T14:52:30Z</time>
      </trkpt>
      <trkpt lat="48.73549" lon="-3.43684">
        <ele>44.36</ele>
        <time>2013-12-02T14:52:31Z</time>
      </trkpt>
      <trkpt lat="48.73549" lon="-3.43698">
        <ele>44.36</ele>
        <time>2013-12-02T14:52:33Z</time>
      </trkpt>
      <trkpt lat="48.73548" lon="-3.43706">
        <ele>44.36</ele>
        <time>2013-12-02T14:52:34Z</time>
      </trkpt>
      <trkpt lat="48.73547" lon="-3.43713">
        <ele>43.88</ele>
        <time>2013-12-02T14:52:35Z</time>
      </trkpt>
      <trkpt lat="48.73544" lon="-3.4372">
        <ele>44.36</ele>
        <time>2013-12-02T14:52:36Z</time>
      </trkpt>
      <trkpt lat="48.7354" lon="-3.43725">
        <ele>44.36</ele>
        <time>2013-12-02T14:52:37Z</time>
      </trkpt>
      <trkpt lat="48.73535" lon="-3.43729">
        <ele>44.36</ele>
        <time>2013-12-02T14:52:38Z</time>
      </trkpt>
      <trkpt lat="48.73531" lon="-3.43732">
        <ele>44.84</ele>
        <time>2013-12-02T14:52:39Z</time>
      </trkpt>
      <trkpt lat="48.73526" lon="-3.43735">
        <ele>44.84</ele>
        <time>2013-12-02T14:52:40Z</time>
      </trkpt>
      <trkpt lat="48.7352" lon="-3.43737">
        <ele>45.32</ele>
        <time>2013-12-02T14:52:41Z</time>
      </trkpt>
      <trkpt lat="48.7351" lon="-3.43742">
        <ele>45.32</ele>
        <time>2013-12-02T14:52:43Z</time>
      </trkpt>
      <trkpt lat="48.73506" lon="-3.43746">
        <ele>45.32</ele>
        <time>2013-12-02T14:52:44Z</time>
      </trkpt>
      <trkpt lat="48.73501" lon="-3.43751">
        <ele>45.32</ele>
        <time>2013-12-02T14:52:45Z</time>
      </trkpt>
      <trkpt lat="48.73497" lon="-3.43756">
        <ele>45.32</ele>
        <time>2013-12-02T14:52:46Z</time>
      </trkpt>
      <trkpt lat="48.73494" lon="-3.43763">
        <ele>45.32</ele>
        <time>2013-12-02T14:52:47Z</time>
      </trkpt>
      <trkpt lat="48.73491" lon="-3.4377">
        <ele>45.32</ele>
        <time>2013-12-02T14:52:48Z</time>
      </trkpt>
      <trkpt lat="48.73449" lon="-3.43872">
        <ele>42.44</ele>
        <time>2013-12-02T14:53:01Z</time>
      </trkpt>
      <trkpt lat="48.73442" lon="-3.43891">
        <ele>41.95</ele>
        <time>2013-12-02T14:53:03Z</time>
      </trkpt>
      <trkpt lat="48.7344" lon="-3.43902">
        <ele>41.95</ele>
        <time>2013-12-02T14:53:04Z</time>
      </trkpt>
      <trkpt lat="48.73438" lon="-3.43914">
        <ele>41.47</ele>
        <time>2013-12-02T14:53:05Z</time>
      </trkpt>
      <trkpt lat="48.73428" lon="-3.44005">
        <ele>38.59</ele>
        <time>2013-12-02T14:53:13Z</time>
      </trkpt>
      <trkpt lat="48.73426" lon="-3.44028">
        <ele>38.11</ele>
        <time>2013-12-02T14:53:15Z</time>
      </trkpt>
      <trkpt lat="48.73424" lon="-3.4404">
        <ele>37.63</ele>
        <time>2013-12-02T14:53:16Z</time>
      </trkpt>
      <trkpt lat="48.73421" lon="-3.44051">
        <ele>37.63</ele>
        <time>2013-12-02T14:53:17Z</time>
      </trkpt>
      <trkpt lat="48.73418" lon="-3.44061">
        <ele>37.15</ele>
        <time>2013-12-02T14:53:18Z</time>
      </trkpt>
      <trkpt lat="48.73415" lon="-3.44072">
        <ele>37.15</ele>
        <time>2013-12-02T14:53:19Z</time>
      </trkpt>
      <trkpt lat="48.73413" lon="-3.44083">
        <ele>36.19</ele>
        <time>2013-12-02T14:53:20Z</time>
      </trkpt>
      <trkpt lat="48.73395" lon="-3.44159">
        <ele>33.78</ele>
        <time>2013-12-02T14:53:30Z</time>
      </trkpt>
      <trkpt lat="48.73391" lon="-3.44181">
        <ele>32.82</ele>
        <time>2013-12-02T14:53:41Z</time>
      </trkpt>
      <trkpt lat="48.7339" lon="-3.44182">
        <ele>33.3</ele>
        <time>2013-12-02T14:53:42Z</time>
      </trkpt>
      <trkpt lat="48.7339" lon="-3.44184">
        <ele>32.82</ele>
        <time>2013-12-02T14:53:43Z</time>
      </trkpt>
      <trkpt lat="48.73389" lon="-3.44186">
        <ele>32.82</ele>
        <time>2013-12-02T14:53:44Z</time>
      </trkpt>
      <trkpt lat="48.73389" lon="-3.44189">
        <ele>33.78</ele>
        <time>2013-12-02T14:53:45Z</time>
      </trkpt>
      <trkpt lat="48.7339" lon="-3.4425">
        <ele>33.3</ele>
        <time>2013-12-02T14:53:56Z</time>
      </trkpt>
      <trkpt lat="48.73398" lon="-3.4435">
        <ele>33.3</ele>
        <time>2013-12-02T14:54:08Z</time>
      </trkpt>
      <trkpt lat="48.73405" lon="-3.44393">
        <ele>32.82</ele>
        <time>2013-12-02T14:54:13Z</time>
      </trkpt>
      <trkpt lat="48.73406" lon="-3.444">
        <ele>32.82</ele>
        <time>2013-12-02T14:54:14Z</time>
      </trkpt>
      <trkpt lat="48.73409" lon="-3.44407">
        <ele>32.82</ele>
        <time>2013-12-02T14:54:15Z</time>
      </trkpt>
      <trkpt lat="48.73413" lon="-3.44412">
        <ele>32.82</ele>
        <time>2013-12-02T14:54:16Z</time>
      </trkpt>
      <trkpt lat="48.73418" lon="-3.44416">
        <ele>32.82</ele>
        <time>2013-12-02T14:54:17Z</time>
      </trkpt>
      <trkpt lat="48.73423" lon="-3.44419">
        <ele>32.82</ele>
        <time>2013-12-02T14:54:18Z</time>
      </trkpt>
      <trkpt lat="48.73429" lon="-3.44421">
        <ele>32.82</ele>
        <time>2013-12-02T14:54:19Z</time>
      </trkpt>
      <trkpt lat="48.7344" lon="-3.44424">
        <ele>32.82</ele>
        <time>2013-12-02T14:54:21Z</time>
      </trkpt>
      <trkpt lat="48.73455" lon="-3.4443">
        <ele>32.34</ele>
        <time>2013-12-02T14:54:24Z</time>
      </trkpt>
      <trkpt lat="48.7346" lon="-3.4443">
        <ele>32.34</ele>
        <time>2013-12-02T14:54:25Z</time>
      </trkpt>
      <trkpt lat="48.73466" lon="-3.44428">
        <ele>32.34</ele>
        <time>2013-12-02T14:54:26Z</time>
      </trkpt>
      <trkpt lat="48.73471" lon="-3.44425">
        <ele>31.86</ele>
        <time>2013-12-02T14:54:27Z</time>
      </trkpt>
      <trkpt lat="48.73476" lon="-3.44422">
        <ele>32.82</ele>
        <time>2013-12-02T14:54:28Z</time>
      </trkpt>
      <trkpt lat="48.73482" lon="-3.44419">
        <ele>30.9</ele>
        <time>2013-12-02T14:54:29Z</time>
      </trkpt>
      <trkpt lat="48.73566" lon="-3.44403">
        <ele>28.02</ele>
        <time>2013-12-02T14:54:42Z</time>
      </trkpt>
      <trkpt lat="48.73624" lon="-3.44415">
        <ele>24.65</ele>
        <time>2013-12-02T14:54:50Z</time>
      </trkpt>
      <trkpt lat="48.73647" lon="-3.44429">
        <ele>22.25</ele>
        <time>2013-12-02T14:54:53Z</time>
      </trkpt>
      <trkpt lat="48.73715" lon="-3.44484">
        <ele>19.84</ele>
        <time>2013-12-02T14:55:03Z</time>
      </trkpt>
      <trkpt lat="48.73737" lon="-3.44492">
        <ele>20.32</ele>
        <time>2013-12-02T14:55:07Z</time>
      </trkpt>
      <trkpt lat="48.73742" lon="-3.44493">
        <ele>20.32</ele>
        <time>2013-12-02T14:55:08Z</time>
      </trkpt>
      <trkpt lat="48.73747" lon="-3.44492">
        <ele>20.81</ele>
        <time>2013-12-02T14:55:09Z</time>
      </trkpt>
      <trkpt lat="48.73752" lon="-3.4449">
        <ele>20.81</ele>
        <time>2013-12-02T14:55:10Z</time>
      </trkpt>
      <trkpt lat="48.73756" lon="-3.44487">
        <ele>20.81</ele>
        <time>2013-12-02T14:55:11Z</time>
      </trkpt>
      <trkpt lat="48.7376" lon="-3.44483">
        <ele>21.29</ele>
        <time>2013-12-02T14:55:12Z</time>
      </trkpt>
      <trkpt lat="48.73764" lon="-3.44479">
        <ele>21.29</ele>
        <time>2013-12-02T14:55:13Z</time>
      </trkpt>
      <trkpt lat="48.73791" lon="-3.44455">
        <ele>24.17</ele>
        <time>2013-12-02T14:55:24Z</time>
      </trkpt>
      <trkpt lat="48.73821" lon="-3.44445">
        <ele>25.61</ele>
        <time>2013-12-02T14:55:37Z</time>
      </trkpt>
      <trkpt lat="48.73864" lon="-3.44452">
        <ele>28.5</ele>
        <time>2013-12-02T14:55:52Z</time>
      </trkpt>
      <trkpt lat="48.73903" lon="-3.44468">
        <ele>31.38</ele>
        <time>2013-12-02T14:56:03Z</time>
      </trkpt>
      <trkpt lat="48.73949" lon="-3.44466">
        <ele>33.78</ele>
        <time>2013-12-02T14:56:15Z</time>
      </trkpt>
      <trkpt lat="48.73952" lon="-3.44464">
        <ele>34.26</ele>
        <time>2013-12-02T14:56:16Z</time>
      </trkpt>
      <trkpt lat="48.73956" lon="-3.44462">
        <ele>34.26</ele>
        <time>2013-12-02T14:56:17Z</time>
      </trkpt>
      <trkpt lat="48.7396" lon="-3.44462">
        <ele>33.78</ele>
        <time>2013-12-02T14:56:18Z</time>
      </trkpt>
      <trkpt lat="48.73969" lon="-3.44464">
        <ele>34.26</ele>
        <time>2013-12-02T14:56:20Z</time>
      </trkpt>
      <trkpt lat="48.73973" lon="-3.44467">
        <ele>34.26</ele>
        <time>2013-12-02T14:56:21Z</time>
      </trkpt>
      <trkpt lat="48.73976" lon="-3.4447">
        <ele>34.26</ele>
        <time>2013-12-02T14:56:22Z</time>
      </trkpt>
      <trkpt lat="48.73979" lon="-3.44473">
        <ele>34.26</ele>
        <time>2013-12-02T14:56:23Z</time>
      </trkpt>
      <trkpt lat="48.73982" lon="-3.44477">
        <ele>34.26</ele>
        <time>2013-12-02T14:56:24Z</time>
      </trkpt>
      <trkpt lat="48.73989" lon="-3.44482">
        <ele>33.78</ele>
        <time>2013-12-02T14:56:26Z</time>
      </trkpt>
      <trkpt lat="48.74002" lon="-3.44487">
        <ele>34.26</ele>
        <time>2013-12-02T14:56:29Z</time>
      </trkpt>
      <trkpt lat="48.74006" lon="-3.44489">
        <ele>34.26</ele>
        <time>2013-12-02T14:56:30Z</time>
      </trkpt>
      <trkpt lat="48.74029" lon="-3.44499">
        <ele>34.26</ele>
        <time>2013-12-02T14:56:36Z</time>
      </trkpt>
      <trkpt lat="48.74039" lon="-3.44502">
        <ele>34.74</ele>
        <time>2013-12-02T14:56:38Z</time>
      </trkpt>
      <trkpt lat="48.74043" lon="-3.44502">
        <ele>34.74</ele>
        <time>2013-12-02T14:56:39Z</time>
      </trkpt>
      <trkpt lat="48.74047" lon="-3.44504">
        <ele>35.23</ele>
        <time>2013-12-02T14:56:40Z</time>
      </trkpt>
      <trkpt lat="48.74112" lon="-3.44537">
        <ele>37.15</ele>
        <time>2013-12-02T14:56:55Z</time>
      </trkpt>
      <trkpt lat="48.74128" lon="-3.44546">
        <ele>37.15</ele>
        <time>2013-12-02T14:57:04Z</time>
      </trkpt>
      <trkpt lat="48.74129" lon="-3.44544">
        <ele>37.15</ele>
        <time>2013-12-02T14:57:16Z</time>
      </trkpt>
      <trkpt lat="48.74131" lon="-3.44545">
        <ele>37.15</ele>
        <time>2013-12-02T14:57:46Z</time>
      </trkpt>
      <trkpt lat="48.74132" lon="-3.44545">
        <ele>37.63</ele>
        <time>2013-12-02T14:58:07Z</time>
      </trkpt>
      <trkpt lat="48.74132" lon="-3.44547">
        <ele>37.63</ele>
        <time>2013-12-02T14:58:14Z</time>
      </trkpt>
      <trkpt lat="48.74134" lon="-3.44548">
        <ele>37.63</ele>
        <time>2013-12-02T14:58:16Z</time>
      </trkpt>
      <trkpt lat="48.74141" lon="-3.44551">
        <ele>38.11</ele>
        <time>2013-12-02T14:58:20Z</time>
      </trkpt>
      <trkpt lat="48.74204" lon="-3.44579">
        <ele>40.51</ele>
        <time>2013-12-02T14:58:35Z</time>
      </trkpt>
      <trkpt lat="48.74222" lon="-3.44588">
        <ele>41.47</ele>
        <time>2013-12-02T14:58:39Z</time>
      </trkpt>
      <trkpt lat="48.74226" lon="-3.44591">
        <ele>41.47</ele>
        <time>2013-12-02T14:58:40Z</time>
      </trkpt>
      <trkpt lat="48.74252" lon="-3.44605">
        <ele>42.44</ele>
        <time>2013-12-02T14:58:46Z</time>
      </trkpt>
      <trkpt lat="48.74255" lon="-3.4461">
        <ele>42.44</ele>
        <time>2013-12-02T14:58:47Z</time>
      </trkpt>
      <trkpt lat="48.74258" lon="-3.44616">
        <ele>42.44</ele>
        <time>2013-12-02T14:58:48Z</time>
      </trkpt>
      <trkpt lat="48.7426" lon="-3.44622">
        <ele>42.92</ele>
        <time>2013-12-02T14:58:49Z</time>
      </trkpt>
      <trkpt lat="48.7426" lon="-3.4463">
        <ele>42.92</ele>
        <time>2013-12-02T14:58:50Z</time>
      </trkpt>
      <trkpt lat="48.74261" lon="-3.44637">
        <ele>42.92</ele>
        <time>2013-12-02T14:58:51Z</time>
      </trkpt>
      <trkpt lat="48.74263" lon="-3.44652">
        <ele>42.92</ele>
        <time>2013-12-02T14:58:53Z</time>
      </trkpt>
      <trkpt lat="48.74271" lon="-3.44699">
        <ele>43.88</ele>
        <time>2013-12-02T14:59:00Z</time>
      </trkpt>
      <trkpt lat="48.74274" lon="-3.44782">
        <ele>47.24</ele>
        <time>2013-12-02T14:59:13Z</time>
      </trkpt>
      <trkpt lat="48.74274" lon="-3.44888">
        <ele>51.09</ele>
        <time>2013-12-02T14:59:29Z</time>
      </trkpt>
      <trkpt lat="48.74273" lon="-3.4499">
        <ele>53.97</ele>
        <time>2013-12-02T14:59:44Z</time>
      </trkpt>
      <trkpt lat="48.74273" lon="-3.45067">
        <ele>57.34</ele>
        <time>2013-12-02T14:59:56Z</time>
      </trkpt>
      <trkpt lat="48.74282" lon="-3.45121">
        <ele>59.74</ele>
        <time>2013-12-02T15:00:05Z</time>
      </trkpt>
      <trkpt lat="48.7429" lon="-3.45143">
        <ele>60.7</ele>
        <time>2013-12-02T15:00:09Z</time>
      </trkpt>
      <trkpt lat="48.74292" lon="-3.45148">
        <ele>61.18</ele>
        <time>2013-12-02T15:00:10Z</time>
      </trkpt>
      <trkpt lat="48.7433" lon="-3.45197">
        <ele>64.07</ele>
        <time>2013-12-02T15:00:23Z</time>
      </trkpt>
      <trkpt lat="48.74369" lon="-3.45219">
        <ele>65.99</ele>
        <time>2013-12-02T15:00:35Z</time>
      </trkpt>
      <trkpt lat="48.74392" lon="-3.45232">
        <ele>66.47</ele>
        <time>2013-12-02T15:00:48Z</time>
      </trkpt>
      <trkpt lat="48.74431" lon="-3.45276">
        <ele>64.55</ele>
        <time>2013-12-02T15:01:00Z</time>
      </trkpt>
      <trkpt lat="48.74483" lon="-3.45342">
        <ele>61.18</ele>
        <time>2013-12-02T15:01:10Z</time>
      </trkpt>
      <trkpt lat="48.74518" lon="-3.4539">
        <ele>58.3</ele>
        <time>2013-12-02T15:01:15Z</time>
      </trkpt>
      <trkpt lat="48.74544" lon="-3.45433">
        <ele>55.41</ele>
        <time>2013-12-02T15:01:19Z</time>
      </trkpt>
      <trkpt lat="48.74578" lon="-3.45494">
        <ele>58.3</ele>
        <time>2013-12-02T15:01:28Z</time>
      </trkpt>
      <trkpt lat="48.74584" lon="-3.45502">
        <ele>59.74</ele>
        <time>2013-12-02T15:01:30Z</time>
      </trkpt>
      <trkpt lat="48.74601" lon="-3.45513">
        <ele>60.7</ele>
        <time>2013-12-02T15:01:35Z</time>
      </trkpt>
      <trkpt lat="48.74604" lon="-3.4551">
        <ele>60.7</ele>
        <time>2013-12-02T15:01:36Z</time>
      </trkpt>
      <trkpt lat="48.74606" lon="-3.45506">
        <ele>60.7</ele>
        <time>2013-12-02T15:01:37Z</time>
      </trkpt>
      <trkpt lat="48.74607" lon="-3.45502">
        <ele>61.18</ele>
        <time>2013-12-02T15:01:38Z</time>
      </trkpt>
      <trkpt lat="48.74608" lon="-3.45497">
        <ele>61.66</ele>
        <time>2013-12-02T15:01:39Z</time>
      </trkpt>
      <trkpt lat="48.74609" lon="-3.45492">
        <ele>62.62</ele>
        <time>2013-12-02T15:01:40Z</time>
      </trkpt>
      <trkpt lat="48.74611" lon="-3.45488">
        <ele>62.62</ele>
        <time>2013-12-02T15:01:41Z</time>
      </trkpt>
      <trkpt lat="48.74613" lon="-3.45484">
        <ele>62.62</ele>
        <time>2013-12-02T15:01:42Z</time>
      </trkpt>
      <trkpt lat="48.74623" lon="-3.45471">
        <ele>64.55</ele>
        <time>2013-12-02T15:01:47Z</time>
      </trkpt>
      <trkpt lat="48.74626" lon="-3.45473">
        <ele>64.55</ele>
        <time>2013-12-02T15:01:48Z</time>
      </trkpt>
      <trkpt lat="48.74628" lon="-3.45475">
        <ele>64.55</ele>
        <time>2013-12-02T15:01:49Z</time>
      </trkpt>
      <trkpt lat="48.74659" lon="-3.45507">
        <ele>67.43</ele>
        <time>2013-12-02T15:02:03Z</time>
      </trkpt>
      <trkpt lat="48.74678" lon="-3.45528">
        <ele>68.39</ele>
        <time>2013-12-02T15:02:12Z</time>
      </trkpt>
      <trkpt lat="48.74681" lon="-3.45529">
        <ele>68.87</ele>
        <time>2013-12-02T15:02:13Z</time>
      </trkpt>
      <trkpt lat="48.74683" lon="-3.45527">
        <ele>68.39</ele>
        <time>2013-12-02T15:02:14Z</time>
      </trkpt>
      <trkpt lat="48.74686" lon="-3.45525">
        <ele>68.87</ele>
        <time>2013-12-02T15:02:15Z</time>
      </trkpt>
      <trkpt lat="48.74688" lon="-3.45522">
        <ele>68.87</ele>
        <time>2013-12-02T15:02:16Z</time>
      </trkpt>
      <trkpt lat="48.7469" lon="-3.45519">
        <ele>68.87</ele>
        <time>2013-12-02T15:02:17Z</time>
      </trkpt>
      <trkpt lat="48.74691" lon="-3.45516">
        <ele>69.35</ele>
        <time>2013-12-02T15:02:18Z</time>
      </trkpt>
      <trkpt lat="48.74691" lon="-3.45513">
        <ele>68.87</ele>
        <time>2013-12-02T15:02:19Z</time>
      </trkpt>
      <trkpt lat="48.74692" lon="-3.4551">
        <ele>69.35</ele>
        <time>2013-12-02T15:02:20Z</time>
      </trkpt>
      <trkpt lat="48.74694" lon="-3.45504">
        <ele>69.35</ele>
        <time>2013-12-02T15:02:30Z</time>
      </trkpt>
      <trkpt lat="48.74694" lon="-3.45506">
        <ele>69.35</ele>
        <time>2013-12-02T15:02:44Z</time>
      </trkpt>
      <trkpt lat="48.74695" lon="-3.45501">
        <ele>69.83</ele>
        <time>2013-12-02T15:03:06Z</time>
      </trkpt>
      <trkpt lat="48.74689" lon="-3.45506">
        <ele>69.83</ele>
        <time>2013-12-02T15:03:23Z</time>
      </trkpt>
      <trkpt lat="48.74685" lon="-3.45506">
        <ele>69.35</ele>
        <time>2013-12-02T15:03:42Z</time>
      </trkpt>
      <trkpt lat="48.74686" lon="-3.4551">
        <ele>69.83</ele>
        <time>2013-12-02T15:04:01Z</time>
      </trkpt>
      <trkpt lat="48.74686" lon="-3.45503">
        <ele>69.83</ele>
        <time>2013-12-02T15:04:21Z</time>
      </trkpt>
    </trkseg>
  </trk>
</gpx>